<?xml version="1.0" encoding="UTF-8" standalone="no" ?>
<gpx xmlns="http://www.topografix.com/GPX/1/1" xmlns:xsi="http://www.w3.org/2001/XMLSchema-instance" xsi:schemaLocation="http://www.topografix.com/GPX/1/1 http://www.topografix.com/GPX/1/1/gpx.xsd" version="1.1" creator="VisuGPX - https://www.visugpx.com">
  <metadata>
    <name>La table du Roi</name>
    <desc><![CDATA[le rendez-vous pour le pique-nique
chacun arrive comme il veut
pour nous, c\'était juste venir dire bonjour (manque de temps et pour la pouliche plus de 2h d\'absence, ce n\'est pas encore ça)]]></desc>
  </metadata>
  <trk>
    <name><![CDATA[Table du Roi]]></name>
    <trkseg>
      <trkpt lat="48.70329" lon="1.76767">
        <ele>172.60000610352</ele>
        <time>2014-04-20T10:02:52.000Z</time>
      </trkpt>
      <trkpt lat="48.70329" lon="1.7677">
        <ele>172.60000610352</ele>
        <time>2014-04-20T10:02:53.000Z</time>
      </trkpt>
      <trkpt lat="48.70329" lon="1.76774">
        <ele>172.60000610352</ele>
        <time>2014-04-20T10:02:56.000Z</time>
      </trkpt>
      <trkpt lat="48.7033" lon="1.76788">
        <ele>170.80000305176</ele>
        <time>2014-04-20T10:03:04.000Z</time>
      </trkpt>
      <trkpt lat="48.70331" lon="1.76803">
        <ele>170.80000305176</ele>
        <time>2014-04-20T10:03:12.000Z</time>
      </trkpt>
      <trkpt lat="48.70332" lon="1.76823">
        <ele>172.19999694824</ele>
        <time>2014-04-20T10:03:22.000Z</time>
      </trkpt>
      <trkpt lat="48.70334" lon="1.76844">
        <ele>174.60000610352</ele>
        <time>2014-04-20T10:03:32.000Z</time>
      </trkpt>
      <trkpt lat="48.70336" lon="1.76866">
        <ele>176.60000610352</ele>
        <time>2014-04-20T10:03:43.000Z</time>
      </trkpt>
      <trkpt lat="48.70336" lon="1.7688">
        <ele>177</ele>
        <time>2014-04-20T10:03:50.000Z</time>
      </trkpt>
      <trkpt lat="48.70337" lon="1.76902">
        <ele>178.39999389648</ele>
        <time>2014-04-20T10:04:01.000Z</time>
      </trkpt>
      <trkpt lat="48.70338" lon="1.76921">
        <ele>179</ele>
        <time>2014-04-20T10:04:11.000Z</time>
      </trkpt>
      <trkpt lat="48.70339" lon="1.76943">
        <ele>180.39999389648</ele>
        <time>2014-04-20T10:04:22.000Z</time>
      </trkpt>
      <trkpt lat="48.70339" lon="1.76948">
        <ele>180.80000305176</ele>
        <time>2014-04-20T10:04:28.000Z</time>
      </trkpt>
      <trkpt lat="48.7034" lon="1.7696">
        <ele>181.39999389648</ele>
        <time>2014-04-20T10:04:43.000Z</time>
      </trkpt>
      <trkpt lat="48.70341" lon="1.76981">
        <ele>181.39999389648</ele>
        <time>2014-04-20T10:04:51.000Z</time>
      </trkpt>
      <trkpt lat="48.70343" lon="1.76998">
        <ele>180.80000305176</ele>
        <time>2014-04-20T10:04:59.000Z</time>
      </trkpt>
      <trkpt lat="48.70344" lon="1.77021">
        <ele>180.80000305176</ele>
        <time>2014-04-20T10:05:10.000Z</time>
      </trkpt>
      <trkpt lat="48.70345" lon="1.77039">
        <ele>181.39999389648</ele>
        <time>2014-04-20T10:05:19.000Z</time>
      </trkpt>
      <trkpt lat="48.70347" lon="1.7706">
        <ele>183.80000305176</ele>
        <time>2014-04-20T10:05:28.000Z</time>
      </trkpt>
      <trkpt lat="48.70348" lon="1.77072">
        <ele>183.80000305176</ele>
        <time>2014-04-20T10:05:34.000Z</time>
      </trkpt>
      <trkpt lat="48.7035" lon="1.77086">
        <ele>183.19999694824</ele>
        <time>2014-04-20T10:05:41.000Z</time>
      </trkpt>
      <trkpt lat="48.70351" lon="1.77106">
        <ele>183.80000305176</ele>
        <time>2014-04-20T10:05:50.000Z</time>
      </trkpt>
      <trkpt lat="48.70354" lon="1.77128">
        <ele>182.80000305176</ele>
        <time>2014-04-20T10:06:01.000Z</time>
      </trkpt>
      <trkpt lat="48.70356" lon="1.77148">
        <ele>181.80000305176</ele>
        <time>2014-04-20T10:06:12.000Z</time>
      </trkpt>
      <trkpt lat="48.70358" lon="1.77163">
        <ele>183.80000305176</ele>
        <time>2014-04-20T10:06:19.000Z</time>
      </trkpt>
      <trkpt lat="48.70358" lon="1.77166">
        <ele>183.80000305176</ele>
        <time>2014-04-20T10:06:20.000Z</time>
      </trkpt>
      <trkpt lat="48.70359" lon="1.77173">
        <ele>183.19999694824</ele>
        <time>2014-04-20T10:06:24.000Z</time>
      </trkpt>
      <trkpt lat="48.70361" lon="1.7719">
        <ele>184.19999694824</ele>
        <time>2014-04-20T10:06:33.000Z</time>
      </trkpt>
      <trkpt lat="48.70361" lon="1.77201">
        <ele>184.19999694824</ele>
        <time>2014-04-20T10:06:39.000Z</time>
      </trkpt>
      <trkpt lat="48.70362" lon="1.77214">
        <ele>184.80000305176</ele>
        <time>2014-04-20T10:06:46.000Z</time>
      </trkpt>
      <trkpt lat="48.70364" lon="1.7723">
        <ele>185.60000610352</ele>
        <time>2014-04-20T10:06:55.000Z</time>
      </trkpt>
      <trkpt lat="48.70366" lon="1.77245">
        <ele>185.19999694824</ele>
        <time>2014-04-20T10:07:04.000Z</time>
      </trkpt>
      <trkpt lat="48.70369" lon="1.77264">
        <ele>184.19999694824</ele>
        <time>2014-04-20T10:07:15.000Z</time>
      </trkpt>
      <trkpt lat="48.7037" lon="1.77279">
        <ele>183.80000305176</ele>
        <time>2014-04-20T10:07:23.000Z</time>
      </trkpt>
      <trkpt lat="48.70373" lon="1.77286">
        <ele>183.80000305176</ele>
        <time>2014-04-20T10:07:28.000Z</time>
      </trkpt>
      <trkpt lat="48.70378" lon="1.77287">
        <ele>182.39999389648</ele>
        <time>2014-04-20T10:07:33.000Z</time>
      </trkpt>
      <trkpt lat="48.70386" lon="1.7728">
        <ele>180.80000305176</ele>
        <time>2014-04-20T10:07:40.000Z</time>
      </trkpt>
      <trkpt lat="48.70392" lon="1.77274">
        <ele>180.39999389648</ele>
        <time>2014-04-20T10:07:46.000Z</time>
      </trkpt>
      <trkpt lat="48.70395" lon="1.77271">
        <ele>181.80000305176</ele>
        <time>2014-04-20T10:07:50.000Z</time>
      </trkpt>
      <trkpt lat="48.70402" lon="1.77266">
        <ele>181.80000305176</ele>
        <time>2014-04-20T10:07:56.000Z</time>
      </trkpt>
      <trkpt lat="48.7041" lon="1.77259">
        <ele>183.19999694824</ele>
        <time>2014-04-20T10:08:03.000Z</time>
      </trkpt>
      <trkpt lat="48.70412" lon="1.77258">
        <ele>183.19999694824</ele>
        <time>2014-04-20T10:08:04.000Z</time>
      </trkpt>
      <trkpt lat="48.70423" lon="1.77251">
        <ele>182.80000305176</ele>
        <time>2014-04-20T10:08:12.000Z</time>
      </trkpt>
      <trkpt lat="48.7043" lon="1.77247">
        <ele>181.80000305176</ele>
        <time>2014-04-20T10:08:18.000Z</time>
      </trkpt>
      <trkpt lat="48.70441" lon="1.77242">
        <ele>180.80000305176</ele>
        <time>2014-04-20T10:08:27.000Z</time>
      </trkpt>
      <trkpt lat="48.7045" lon="1.77239">
        <ele>180.39999389648</ele>
        <time>2014-04-20T10:08:33.000Z</time>
      </trkpt>
      <trkpt lat="48.70456" lon="1.77237">
        <ele>180.39999389648</ele>
        <time>2014-04-20T10:08:37.000Z</time>
      </trkpt>
      <trkpt lat="48.70465" lon="1.77237">
        <ele>180</ele>
        <time>2014-04-20T10:08:47.000Z</time>
      </trkpt>
      <trkpt lat="48.70469" lon="1.77237">
        <ele>180</ele>
        <time>2014-04-20T10:08:51.000Z</time>
      </trkpt>
      <trkpt lat="48.70476" lon="1.77238">
        <ele>179</ele>
        <time>2014-04-20T10:08:56.000Z</time>
      </trkpt>
      <trkpt lat="48.70482" lon="1.77239">
        <ele>178</ele>
        <time>2014-04-20T10:09:01.000Z</time>
      </trkpt>
      <trkpt lat="48.70486" lon="1.7724">
        <ele>177</ele>
        <time>2014-04-20T10:09:05.000Z</time>
      </trkpt>
      <trkpt lat="48.70493" lon="1.77242">
        <ele>175.60000610352</ele>
        <time>2014-04-20T10:09:13.000Z</time>
      </trkpt>
      <trkpt lat="48.70502" lon="1.77243">
        <ele>175.60000610352</ele>
        <time>2014-04-20T10:09:20.000Z</time>
      </trkpt>
      <trkpt lat="48.70504" lon="1.77244">
        <ele>175</ele>
        <time>2014-04-20T10:09:22.000Z</time>
      </trkpt>
      <trkpt lat="48.70515" lon="1.77243">
        <ele>174.60000610352</ele>
        <time>2014-04-20T10:09:29.000Z</time>
      </trkpt>
      <trkpt lat="48.70522" lon="1.77243">
        <ele>175</ele>
        <time>2014-04-20T10:09:34.000Z</time>
      </trkpt>
      <trkpt lat="48.70526" lon="1.77243">
        <ele>174.60000610352</ele>
        <time>2014-04-20T10:09:38.000Z</time>
      </trkpt>
      <trkpt lat="48.70534" lon="1.77244">
        <ele>174.19999694824</ele>
        <time>2014-04-20T10:09:45.000Z</time>
      </trkpt>
      <trkpt lat="48.70545" lon="1.77243">
        <ele>176</ele>
        <time>2014-04-20T10:09:49.000Z</time>
      </trkpt>
      <trkpt lat="48.70554" lon="1.77245">
        <ele>176</ele>
        <time>2014-04-20T10:09:56.000Z</time>
      </trkpt>
      <trkpt lat="48.7056" lon="1.77245">
        <ele>175.60000610352</ele>
        <time>2014-04-20T10:10:00.000Z</time>
      </trkpt>
      <trkpt lat="48.70566" lon="1.77245">
        <ele>174.19999694824</ele>
        <time>2014-04-20T10:10:05.000Z</time>
      </trkpt>
      <trkpt lat="48.70581" lon="1.77245">
        <ele>176.60000610352</ele>
        <time>2014-04-20T10:10:13.000Z</time>
      </trkpt>
      <trkpt lat="48.70589" lon="1.77244">
        <ele>179</ele>
        <time>2014-04-20T10:10:21.000Z</time>
      </trkpt>
      <trkpt lat="48.70598" lon="1.77244">
        <ele>180.39999389648</ele>
        <time>2014-04-20T10:10:28.000Z</time>
      </trkpt>
      <trkpt lat="48.70606" lon="1.77246">
        <ele>178</ele>
        <time>2014-04-20T10:10:34.000Z</time>
      </trkpt>
      <trkpt lat="48.70614" lon="1.77249">
        <ele>175.60000610352</ele>
        <time>2014-04-20T10:10:41.000Z</time>
      </trkpt>
      <trkpt lat="48.7062" lon="1.77251">
        <ele>175.60000610352</ele>
        <time>2014-04-20T10:10:46.000Z</time>
      </trkpt>
      <trkpt lat="48.70629" lon="1.77251">
        <ele>176</ele>
        <time>2014-04-20T10:10:53.000Z</time>
      </trkpt>
      <trkpt lat="48.70639" lon="1.77251">
        <ele>176.60000610352</ele>
        <time>2014-04-20T10:11:01.000Z</time>
      </trkpt>
      <trkpt lat="48.70647" lon="1.77253">
        <ele>175</ele>
        <time>2014-04-20T10:11:08.000Z</time>
      </trkpt>
      <trkpt lat="48.70648" lon="1.77253">
        <ele>175</ele>
        <time>2014-04-20T10:11:09.000Z</time>
      </trkpt>
      <trkpt lat="48.70655" lon="1.77255">
        <ele>174.60000610352</ele>
        <time>2014-04-20T10:11:14.000Z</time>
      </trkpt>
      <trkpt lat="48.70659" lon="1.77256">
        <ele>175</ele>
        <time>2014-04-20T10:11:16.000Z</time>
      </trkpt>
      <trkpt lat="48.70667" lon="1.77259">
        <ele>172.19999694824</ele>
        <time>2014-04-20T10:11:24.000Z</time>
      </trkpt>
      <trkpt lat="48.70674" lon="1.77261">
        <ele>169.39999389648</ele>
        <time>2014-04-20T10:11:31.000Z</time>
      </trkpt>
      <trkpt lat="48.70679" lon="1.77262">
        <ele>167</ele>
        <time>2014-04-20T10:11:36.000Z</time>
      </trkpt>
      <trkpt lat="48.70686" lon="1.77263">
        <ele>167</ele>
        <time>2014-04-20T10:11:43.000Z</time>
      </trkpt>
      <trkpt lat="48.70696" lon="1.77262">
        <ele>168.80000305176</ele>
        <time>2014-04-20T10:11:48.000Z</time>
      </trkpt>
      <trkpt lat="48.70704" lon="1.77262">
        <ele>169.80000305176</ele>
        <time>2014-04-20T10:11:53.000Z</time>
      </trkpt>
      <trkpt lat="48.70718" lon="1.77262">
        <ele>170.80000305176</ele>
        <time>2014-04-20T10:12:01.000Z</time>
      </trkpt>
      <trkpt lat="48.70727" lon="1.7726">
        <ele>171.80000305176</ele>
        <time>2014-04-20T10:12:08.000Z</time>
      </trkpt>
      <trkpt lat="48.70735" lon="1.77259">
        <ele>171.80000305176</ele>
        <time>2014-04-20T10:12:13.000Z</time>
      </trkpt>
      <trkpt lat="48.70744" lon="1.77258">
        <ele>169.39999389648</ele>
        <time>2014-04-20T10:12:21.000Z</time>
      </trkpt>
      <trkpt lat="48.70753" lon="1.77257">
        <ele>168.39999389648</ele>
        <time>2014-04-20T10:12:27.000Z</time>
      </trkpt>
      <trkpt lat="48.7076" lon="1.77256">
        <ele>166.39999389648</ele>
        <time>2014-04-20T10:12:34.000Z</time>
      </trkpt>
      <trkpt lat="48.7077" lon="1.77254">
        <ele>166.39999389648</ele>
        <time>2014-04-20T10:12:40.000Z</time>
      </trkpt>
      <trkpt lat="48.70774" lon="1.77254">
        <ele>164</ele>
        <time>2014-04-20T10:12:45.000Z</time>
      </trkpt>
      <trkpt lat="48.70781" lon="1.77256">
        <ele>159.80000305176</ele>
        <time>2014-04-20T10:12:53.000Z</time>
      </trkpt>
      <trkpt lat="48.70793" lon="1.77255">
        <ele>159.80000305176</ele>
        <time>2014-04-20T10:13:01.000Z</time>
      </trkpt>
      <trkpt lat="48.70806" lon="1.77251">
        <ele>165</ele>
        <time>2014-04-20T10:13:06.000Z</time>
      </trkpt>
      <trkpt lat="48.70811" lon="1.77251">
        <ele>164.60000610352</ele>
        <time>2014-04-20T10:13:11.000Z</time>
      </trkpt>
      <trkpt lat="48.70819" lon="1.77254">
        <ele>161.19999694824</ele>
        <time>2014-04-20T10:13:22.000Z</time>
      </trkpt>
      <trkpt lat="48.70827" lon="1.77257">
        <ele>158.80000305176</ele>
        <time>2014-04-20T10:13:29.000Z</time>
      </trkpt>
      <trkpt lat="48.70837" lon="1.77259">
        <ele>157.39999389648</ele>
        <time>2014-04-20T10:13:37.000Z</time>
      </trkpt>
      <trkpt lat="48.70851" lon="1.77258">
        <ele>160.19999694824</ele>
        <time>2014-04-20T10:13:44.000Z</time>
      </trkpt>
      <trkpt lat="48.70855" lon="1.77258">
        <ele>161.19999694824</ele>
        <time>2014-04-20T10:13:46.000Z</time>
      </trkpt>
      <trkpt lat="48.70866" lon="1.77259">
        <ele>161.60000610352</ele>
        <time>2014-04-20T10:13:53.000Z</time>
      </trkpt>
      <trkpt lat="48.70878" lon="1.77267">
        <ele>167</ele>
        <time>2014-04-20T10:14:00.000Z</time>
      </trkpt>
      <trkpt lat="48.70888" lon="1.77286">
        <ele>168.39999389648</ele>
        <time>2014-04-20T10:14:10.000Z</time>
      </trkpt>
      <trkpt lat="48.70895" lon="1.77301">
        <ele>168.80000305176</ele>
        <time>2014-04-20T10:14:18.000Z</time>
      </trkpt>
      <trkpt lat="48.70901" lon="1.77317">
        <ele>168.39999389648</ele>
        <time>2014-04-20T10:14:26.000Z</time>
      </trkpt>
      <trkpt lat="48.70909" lon="1.77335">
        <ele>167.39999389648</ele>
        <time>2014-04-20T10:14:36.000Z</time>
      </trkpt>
      <trkpt lat="48.70919" lon="1.7735">
        <ele>166.39999389648</ele>
        <time>2014-04-20T10:14:46.000Z</time>
      </trkpt>
      <trkpt lat="48.7092" lon="1.77352">
        <ele>166</ele>
        <time>2014-04-20T10:14:47.000Z</time>
      </trkpt>
      <trkpt lat="48.70927" lon="1.77365">
        <ele>165.39999389648</ele>
        <time>2014-04-20T10:14:55.000Z</time>
      </trkpt>
      <trkpt lat="48.70934" lon="1.77377">
        <ele>164</ele>
        <time>2014-04-20T10:15:03.000Z</time>
      </trkpt>
      <trkpt lat="48.70941" lon="1.77393">
        <ele>166</ele>
        <time>2014-04-20T10:15:11.000Z</time>
      </trkpt>
      <trkpt lat="48.7095" lon="1.7741">
        <ele>165.39999389648</ele>
        <time>2014-04-20T10:15:21.000Z</time>
      </trkpt>
      <trkpt lat="48.70956" lon="1.77423">
        <ele>166.39999389648</ele>
        <time>2014-04-20T10:15:28.000Z</time>
      </trkpt>
      <trkpt lat="48.70959" lon="1.77429">
        <ele>167</ele>
        <time>2014-04-20T10:15:32.000Z</time>
      </trkpt>
      <trkpt lat="48.70965" lon="1.77445">
        <ele>167</ele>
        <time>2014-04-20T10:15:40.000Z</time>
      </trkpt>
      <trkpt lat="48.70971" lon="1.77457">
        <ele>166.39999389648</ele>
        <time>2014-04-20T10:15:47.000Z</time>
      </trkpt>
      <trkpt lat="48.70979" lon="1.77471">
        <ele>167.39999389648</ele>
        <time>2014-04-20T10:15:55.000Z</time>
      </trkpt>
      <trkpt lat="48.70985" lon="1.77483">
        <ele>167.39999389648</ele>
        <time>2014-04-20T10:16:02.000Z</time>
      </trkpt>
      <trkpt lat="48.7099" lon="1.77499">
        <ele>167.80000305176</ele>
        <time>2014-04-20T10:16:10.000Z</time>
      </trkpt>
      <trkpt lat="48.70995" lon="1.77513">
        <ele>167.80000305176</ele>
        <time>2014-04-20T10:16:17.000Z</time>
      </trkpt>
      <trkpt lat="48.70997" lon="1.77518">
        <ele>168.80000305176</ele>
        <time>2014-04-20T10:16:20.000Z</time>
      </trkpt>
      <trkpt lat="48.71002" lon="1.77531">
        <ele>169.80000305176</ele>
        <time>2014-04-20T10:16:27.000Z</time>
      </trkpt>
      <trkpt lat="48.71005" lon="1.77538">
        <ele>170.19999694824</ele>
        <time>2014-04-20T10:16:31.000Z</time>
      </trkpt>
      <trkpt lat="48.7101" lon="1.77549">
        <ele>167.80000305176</ele>
        <time>2014-04-20T10:16:38.000Z</time>
      </trkpt>
      <trkpt lat="48.71012" lon="1.77555">
        <ele>167</ele>
        <time>2014-04-20T10:16:41.000Z</time>
      </trkpt>
      <trkpt lat="48.71018" lon="1.77571">
        <ele>167</ele>
        <time>2014-04-20T10:16:49.000Z</time>
      </trkpt>
      <trkpt lat="48.71024" lon="1.77587">
        <ele>167</ele>
        <time>2014-04-20T10:16:57.000Z</time>
      </trkpt>
      <trkpt lat="48.71032" lon="1.77605">
        <ele>166.39999389648</ele>
        <time>2014-04-20T10:17:07.000Z</time>
      </trkpt>
      <trkpt lat="48.71037" lon="1.77617">
        <ele>167.80000305176</ele>
        <time>2014-04-20T10:17:13.000Z</time>
      </trkpt>
      <trkpt lat="48.71041" lon="1.77625">
        <ele>167.80000305176</ele>
        <time>2014-04-20T10:17:18.000Z</time>
      </trkpt>
      <trkpt lat="48.71048" lon="1.77637">
        <ele>169.39999389648</ele>
        <time>2014-04-20T10:17:25.000Z</time>
      </trkpt>
      <trkpt lat="48.71053" lon="1.77651">
        <ele>167.80000305176</ele>
        <time>2014-04-20T10:17:33.000Z</time>
      </trkpt>
      <trkpt lat="48.71059" lon="1.77663">
        <ele>168.39999389648</ele>
        <time>2014-04-20T10:17:40.000Z</time>
      </trkpt>
      <trkpt lat="48.71063" lon="1.77669">
        <ele>169.39999389648</ele>
        <time>2014-04-20T10:17:44.000Z</time>
      </trkpt>
      <trkpt lat="48.71065" lon="1.77675">
        <ele>168.80000305176</ele>
        <time>2014-04-20T10:17:47.000Z</time>
      </trkpt>
      <trkpt lat="48.71073" lon="1.77688">
        <ele>170.19999694824</ele>
        <time>2014-04-20T10:17:55.000Z</time>
      </trkpt>
      <trkpt lat="48.71079" lon="1.77697">
        <ele>171.19999694824</ele>
        <time>2014-04-20T10:18:01.000Z</time>
      </trkpt>
      <trkpt lat="48.71081" lon="1.77704">
        <ele>169.80000305176</ele>
        <time>2014-04-20T10:18:05.000Z</time>
      </trkpt>
      <trkpt lat="48.71085" lon="1.77723">
        <ele>165</ele>
        <time>2014-04-20T10:18:15.000Z</time>
      </trkpt>
      <trkpt lat="48.7109" lon="1.77737">
        <ele>164.60000610352</ele>
        <time>2014-04-20T10:18:23.000Z</time>
      </trkpt>
      <trkpt lat="48.71093" lon="1.77747">
        <ele>165.39999389648</ele>
        <time>2014-04-20T10:18:29.000Z</time>
      </trkpt>
      <trkpt lat="48.71101" lon="1.77758">
        <ele>167.39999389648</ele>
        <time>2014-04-20T10:18:36.000Z</time>
      </trkpt>
      <trkpt lat="48.71103" lon="1.77764">
        <ele>167.39999389648</ele>
        <time>2014-04-20T10:18:39.000Z</time>
      </trkpt>
      <trkpt lat="48.71104" lon="1.77778">
        <ele>165</ele>
        <time>2014-04-20T10:18:46.000Z</time>
      </trkpt>
      <trkpt lat="48.71105" lon="1.7778">
        <ele>165</ele>
        <time>2014-04-20T10:18:47.000Z</time>
      </trkpt>
      <trkpt lat="48.71106" lon="1.77786">
        <ele>164</ele>
        <time>2014-04-20T10:18:51.000Z</time>
      </trkpt>
      <trkpt lat="48.71109" lon="1.77795">
        <ele>165.39999389648</ele>
        <time>2014-04-20T10:18:56.000Z</time>
      </trkpt>
      <trkpt lat="48.71111" lon="1.77816">
        <ele>166.39999389648</ele>
        <time>2014-04-20T10:19:06.000Z</time>
      </trkpt>
      <trkpt lat="48.71112" lon="1.77828">
        <ele>166.39999389648</ele>
        <time>2014-04-20T10:19:13.000Z</time>
      </trkpt>
      <trkpt lat="48.71113" lon="1.77845">
        <ele>167.39999389648</ele>
        <time>2014-04-20T10:19:21.000Z</time>
      </trkpt>
      <trkpt lat="48.71116" lon="1.7786">
        <ele>167.80000305176</ele>
        <time>2014-04-20T10:19:29.000Z</time>
      </trkpt>
      <trkpt lat="48.71118" lon="1.77877">
        <ele>169.39999389648</ele>
        <time>2014-04-20T10:19:37.000Z</time>
      </trkpt>
      <trkpt lat="48.71121" lon="1.77893">
        <ele>168.39999389648</ele>
        <time>2014-04-20T10:19:45.000Z</time>
      </trkpt>
      <trkpt lat="48.71126" lon="1.77913">
        <ele>166.39999389648</ele>
        <time>2014-04-20T10:19:55.000Z</time>
      </trkpt>
      <trkpt lat="48.71132" lon="1.77931">
        <ele>165.39999389648</ele>
        <time>2014-04-20T10:20:04.000Z</time>
      </trkpt>
      <trkpt lat="48.71139" lon="1.77947">
        <ele>164</ele>
        <time>2014-04-20T10:20:13.000Z</time>
      </trkpt>
      <trkpt lat="48.71139" lon="1.77959">
        <ele>165</ele>
        <time>2014-04-20T10:20:19.000Z</time>
      </trkpt>
      <trkpt lat="48.71136" lon="1.7797">
        <ele>164.60000610352</ele>
        <time>2014-04-20T10:20:24.000Z</time>
      </trkpt>
      <trkpt lat="48.71133" lon="1.77987">
        <ele>164.60000610352</ele>
        <time>2014-04-20T10:20:32.000Z</time>
      </trkpt>
      <trkpt lat="48.71135" lon="1.78">
        <ele>163.60000610352</ele>
        <time>2014-04-20T10:20:39.000Z</time>
      </trkpt>
      <trkpt lat="48.71136" lon="1.78001">
        <ele>163</ele>
        <time>2014-04-20T10:20:40.000Z</time>
      </trkpt>
      <trkpt lat="48.71142" lon="1.78019">
        <ele>164</ele>
        <time>2014-04-20T10:20:49.000Z</time>
      </trkpt>
      <trkpt lat="48.71148" lon="1.78029">
        <ele>164</ele>
        <time>2014-04-20T10:20:55.000Z</time>
      </trkpt>
      <trkpt lat="48.71153" lon="1.78041">
        <ele>163</ele>
        <time>2014-04-20T10:21:02.000Z</time>
      </trkpt>
      <trkpt lat="48.71157" lon="1.78051">
        <ele>162.19999694824</ele>
        <time>2014-04-20T10:21:08.000Z</time>
      </trkpt>
      <trkpt lat="48.7116" lon="1.78058">
        <ele>162.19999694824</ele>
        <time>2014-04-20T10:21:12.000Z</time>
      </trkpt>
      <trkpt lat="48.71168" lon="1.78068">
        <ele>163</ele>
        <time>2014-04-20T10:21:19.000Z</time>
      </trkpt>
      <trkpt lat="48.71176" lon="1.78078">
        <ele>163.60000610352</ele>
        <time>2014-04-20T10:21:27.000Z</time>
      </trkpt>
      <trkpt lat="48.71181" lon="1.78084">
        <ele>163</ele>
        <time>2014-04-20T10:21:32.000Z</time>
      </trkpt>
      <trkpt lat="48.71185" lon="1.78093">
        <ele>160.60000610352</ele>
        <time>2014-04-20T10:21:38.000Z</time>
      </trkpt>
      <trkpt lat="48.71194" lon="1.78102">
        <ele>160.60000610352</ele>
        <time>2014-04-20T10:21:46.000Z</time>
      </trkpt>
      <trkpt lat="48.71197" lon="1.78107">
        <ele>161.19999694824</ele>
        <time>2014-04-20T10:21:49.000Z</time>
      </trkpt>
      <trkpt lat="48.71205" lon="1.78114">
        <ele>166</ele>
        <time>2014-04-20T10:21:56.000Z</time>
      </trkpt>
      <trkpt lat="48.71213" lon="1.7812">
        <ele>166</ele>
        <time>2014-04-20T10:22:01.000Z</time>
      </trkpt>
      <trkpt lat="48.71213" lon="1.78122">
        <ele>165.39999389648</ele>
        <time>2014-04-20T10:22:02.000Z</time>
      </trkpt>
      <trkpt lat="48.7122" lon="1.78134">
        <ele>164.60000610352</ele>
        <time>2014-04-20T10:22:10.000Z</time>
      </trkpt>
      <trkpt lat="48.71228" lon="1.78141">
        <ele>166.39999389648</ele>
        <time>2014-04-20T10:22:16.000Z</time>
      </trkpt>
      <trkpt lat="48.71234" lon="1.78151">
        <ele>164.60000610352</ele>
        <time>2014-04-20T10:22:24.000Z</time>
      </trkpt>
      <trkpt lat="48.71241" lon="1.7816">
        <ele>163.60000610352</ele>
        <time>2014-04-20T10:22:31.000Z</time>
      </trkpt>
      <trkpt lat="48.71251" lon="1.78173">
        <ele>163</ele>
        <time>2014-04-20T10:22:40.000Z</time>
      </trkpt>
      <trkpt lat="48.7126" lon="1.78184">
        <ele>163.60000610352</ele>
        <time>2014-04-20T10:22:48.000Z</time>
      </trkpt>
      <trkpt lat="48.71268" lon="1.78193">
        <ele>163</ele>
        <time>2014-04-20T10:22:55.000Z</time>
      </trkpt>
      <trkpt lat="48.71272" lon="1.78196">
        <ele>163</ele>
        <time>2014-04-20T10:22:58.000Z</time>
      </trkpt>
      <trkpt lat="48.71279" lon="1.78202">
        <ele>165</ele>
        <time>2014-04-20T10:23:04.000Z</time>
      </trkpt>
      <trkpt lat="48.71286" lon="1.78207">
        <ele>168.39999389648</ele>
        <time>2014-04-20T10:23:11.000Z</time>
      </trkpt>
      <trkpt lat="48.71289" lon="1.7821">
        <ele>167</ele>
        <time>2014-04-20T10:23:15.000Z</time>
      </trkpt>
      <trkpt lat="48.71294" lon="1.78213">
        <ele>165.39999389648</ele>
        <time>2014-04-20T10:23:20.000Z</time>
      </trkpt>
      <trkpt lat="48.71298" lon="1.78219">
        <ele>162.60000610352</ele>
        <time>2014-04-20T10:23:26.000Z</time>
      </trkpt>
      <trkpt lat="48.71311" lon="1.7822">
        <ele>166.39999389648</ele>
        <time>2014-04-20T10:23:33.000Z</time>
      </trkpt>
      <trkpt lat="48.71313" lon="1.7822">
        <ele>166</ele>
        <time>2014-04-20T10:23:36.000Z</time>
      </trkpt>
      <trkpt lat="48.71319" lon="1.78224">
        <ele>162.60000610352</ele>
        <time>2014-04-20T10:23:44.000Z</time>
      </trkpt>
      <trkpt lat="48.71327" lon="1.78228">
        <ele>160.60000610352</ele>
        <time>2014-04-20T10:23:51.000Z</time>
      </trkpt>
      <trkpt lat="48.7133" lon="1.7823">
        <ele>159.19999694824</ele>
        <time>2014-04-20T10:23:54.000Z</time>
      </trkpt>
      <trkpt lat="48.71334" lon="1.78232">
        <ele>157.39999389648</ele>
        <time>2014-04-20T10:23:58.000Z</time>
      </trkpt>
      <trkpt lat="48.71337" lon="1.78236">
        <ele>155</ele>
        <time>2014-04-20T10:24:02.000Z</time>
      </trkpt>
      <trkpt lat="48.71343" lon="1.78241">
        <ele>153.39999389648</ele>
        <time>2014-04-20T10:24:09.000Z</time>
      </trkpt>
      <trkpt lat="48.71349" lon="1.78247">
        <ele>150.60000610352</ele>
        <time>2014-04-20T10:24:15.000Z</time>
      </trkpt>
      <trkpt lat="48.71351" lon="1.78248">
        <ele>150.19999694824</ele>
        <time>2014-04-20T10:24:17.000Z</time>
      </trkpt>
      <trkpt lat="48.71355" lon="1.78253">
        <ele>150.19999694824</ele>
        <time>2014-04-20T10:24:22.000Z</time>
      </trkpt>
      <trkpt lat="48.71361" lon="1.78258">
        <ele>148.60000610352</ele>
        <time>2014-04-20T10:24:30.000Z</time>
      </trkpt>
      <trkpt lat="48.71366" lon="1.78262">
        <ele>147.19999694824</ele>
        <time>2014-04-20T10:24:36.000Z</time>
      </trkpt>
      <trkpt lat="48.71371" lon="1.78267">
        <ele>145.80000305176</ele>
        <time>2014-04-20T10:24:42.000Z</time>
      </trkpt>
      <trkpt lat="48.71374" lon="1.78268">
        <ele>145.80000305176</ele>
        <time>2014-04-20T10:24:45.000Z</time>
      </trkpt>
      <trkpt lat="48.7138" lon="1.78272">
        <ele>145.19999694824</ele>
        <time>2014-04-20T10:24:50.000Z</time>
      </trkpt>
      <trkpt lat="48.71395" lon="1.78276">
        <ele>147.19999694824</ele>
        <time>2014-04-20T10:24:59.000Z</time>
      </trkpt>
      <trkpt lat="48.7141" lon="1.78277">
        <ele>149.19999694824</ele>
        <time>2014-04-20T10:25:07.000Z</time>
      </trkpt>
      <trkpt lat="48.71425" lon="1.78281">
        <ele>150.60000610352</ele>
        <time>2014-04-20T10:25:15.000Z</time>
      </trkpt>
      <trkpt lat="48.71435" lon="1.78284">
        <ele>151.60000610352</ele>
        <time>2014-04-20T10:25:18.000Z</time>
      </trkpt>
      <trkpt lat="48.7145" lon="1.78292">
        <ele>151</ele>
        <time>2014-04-20T10:25:24.000Z</time>
      </trkpt>
      <trkpt lat="48.7147" lon="1.78296">
        <ele>152</ele>
        <time>2014-04-20T10:25:30.000Z</time>
      </trkpt>
      <trkpt lat="48.71481" lon="1.78297">
        <ele>152.60000610352</ele>
        <time>2014-04-20T10:25:33.000Z</time>
      </trkpt>
      <trkpt lat="48.71494" lon="1.78302">
        <ele>152</ele>
        <time>2014-04-20T10:25:38.000Z</time>
      </trkpt>
      <trkpt lat="48.71515" lon="1.78313">
        <ele>155.39999389648</ele>
        <time>2014-04-20T10:25:44.000Z</time>
      </trkpt>
      <trkpt lat="48.71533" lon="1.7832">
        <ele>155</ele>
        <time>2014-04-20T10:25:49.000Z</time>
      </trkpt>
      <trkpt lat="48.71546" lon="1.78326">
        <ele>155.39999389648</ele>
        <time>2014-04-20T10:25:53.000Z</time>
      </trkpt>
      <trkpt lat="48.71563" lon="1.78335">
        <ele>156.39999389648</ele>
        <time>2014-04-20T10:25:58.000Z</time>
      </trkpt>
      <trkpt lat="48.71579" lon="1.78344">
        <ele>157.80000305176</ele>
        <time>2014-04-20T10:26:03.000Z</time>
      </trkpt>
      <trkpt lat="48.71596" lon="1.7835">
        <ele>158.80000305176</ele>
        <time>2014-04-20T10:26:08.000Z</time>
      </trkpt>
      <trkpt lat="48.71621" lon="1.78355">
        <ele>167</ele>
        <time>2014-04-20T10:26:13.000Z</time>
      </trkpt>
      <trkpt lat="48.71642" lon="1.78378">
        <ele>175.60000610352</ele>
        <time>2014-04-20T10:26:19.000Z</time>
      </trkpt>
      <trkpt lat="48.71651" lon="1.78421">
        <ele>178.39999389648</ele>
        <time>2014-04-20T10:26:27.000Z</time>
      </trkpt>
      <trkpt lat="48.71655" lon="1.78456">
        <ele>179</ele>
        <time>2014-04-20T10:26:34.000Z</time>
      </trkpt>
      <trkpt lat="48.71663" lon="1.78483">
        <ele>178</ele>
        <time>2014-04-20T10:26:40.000Z</time>
      </trkpt>
      <trkpt lat="48.71677" lon="1.78507">
        <ele>178.39999389648</ele>
        <time>2014-04-20T10:26:46.000Z</time>
      </trkpt>
      <trkpt lat="48.71694" lon="1.78518">
        <ele>180</ele>
        <time>2014-04-20T10:26:51.000Z</time>
      </trkpt>
      <trkpt lat="48.71709" lon="1.78531">
        <ele>177.60000610352</ele>
        <time>2014-04-20T10:26:57.000Z</time>
      </trkpt>
      <trkpt lat="48.71717" lon="1.78536">
        <ele>179.39999389648</ele>
        <time>2014-04-20T10:27:02.000Z</time>
      </trkpt>
      <trkpt lat="48.71724" lon="1.78543">
        <ele>179.39999389648</ele>
        <time>2014-04-20T10:27:07.000Z</time>
      </trkpt>
      <trkpt lat="48.71733" lon="1.78559">
        <ele>177.60000610352</ele>
        <time>2014-04-20T10:27:17.000Z</time>
      </trkpt>
      <trkpt lat="48.71741" lon="1.78575">
        <ele>177</ele>
        <time>2014-04-20T10:27:26.000Z</time>
      </trkpt>
      <trkpt lat="48.71742" lon="1.78591">
        <ele>177.60000610352</ele>
        <time>2014-04-20T10:27:34.000Z</time>
      </trkpt>
      <trkpt lat="48.71742" lon="1.78602">
        <ele>176.60000610352</ele>
        <time>2014-04-20T10:27:40.000Z</time>
      </trkpt>
      <trkpt lat="48.7174" lon="1.78616">
        <ele>177</ele>
        <time>2014-04-20T10:27:47.000Z</time>
      </trkpt>
      <trkpt lat="48.71734" lon="1.78633">
        <ele>177.60000610352</ele>
        <time>2014-04-20T10:27:53.000Z</time>
      </trkpt>
      <trkpt lat="48.71727" lon="1.78657">
        <ele>176</ele>
        <time>2014-04-20T10:27:59.000Z</time>
      </trkpt>
      <trkpt lat="48.71719" lon="1.78684">
        <ele>175.60000610352</ele>
        <time>2014-04-20T10:28:06.000Z</time>
      </trkpt>
      <trkpt lat="48.7171" lon="1.78712">
        <ele>177</ele>
        <time>2014-04-20T10:28:12.000Z</time>
      </trkpt>
      <trkpt lat="48.71701" lon="1.7874">
        <ele>175</ele>
        <time>2014-04-20T10:28:19.000Z</time>
      </trkpt>
      <trkpt lat="48.71693" lon="1.78769">
        <ele>174.19999694824</ele>
        <time>2014-04-20T10:28:26.000Z</time>
      </trkpt>
      <trkpt lat="48.71685" lon="1.78792">
        <ele>173.60000610352</ele>
        <time>2014-04-20T10:28:32.000Z</time>
      </trkpt>
      <trkpt lat="48.71677" lon="1.78817">
        <ele>174.60000610352</ele>
        <time>2014-04-20T10:28:38.000Z</time>
      </trkpt>
      <trkpt lat="48.71667" lon="1.78849">
        <ele>176</ele>
        <time>2014-04-20T10:28:45.000Z</time>
      </trkpt>
      <trkpt lat="48.71655" lon="1.7889">
        <ele>176</ele>
        <time>2014-04-20T10:28:54.000Z</time>
      </trkpt>
      <trkpt lat="48.71646" lon="1.7892">
        <ele>177</ele>
        <time>2014-04-20T10:29:01.000Z</time>
      </trkpt>
      <trkpt lat="48.71639" lon="1.78943">
        <ele>178</ele>
        <time>2014-04-20T10:29:06.000Z</time>
      </trkpt>
      <trkpt lat="48.71632" lon="1.78965">
        <ele>177.60000610352</ele>
        <time>2014-04-20T10:29:11.000Z</time>
      </trkpt>
      <trkpt lat="48.71625" lon="1.78988">
        <ele>177</ele>
        <time>2014-04-20T10:29:16.000Z</time>
      </trkpt>
      <trkpt lat="48.71616" lon="1.7902">
        <ele>176.60000610352</ele>
        <time>2014-04-20T10:29:23.000Z</time>
      </trkpt>
      <trkpt lat="48.71608" lon="1.79046">
        <ele>176</ele>
        <time>2014-04-20T10:29:29.000Z</time>
      </trkpt>
      <trkpt lat="48.71599" lon="1.79074">
        <ele>176.60000610352</ele>
        <time>2014-04-20T10:29:35.000Z</time>
      </trkpt>
      <trkpt lat="48.7159" lon="1.791">
        <ele>176</ele>
        <time>2014-04-20T10:29:41.000Z</time>
      </trkpt>
      <trkpt lat="48.71583" lon="1.79124">
        <ele>177</ele>
        <time>2014-04-20T10:29:46.000Z</time>
      </trkpt>
      <trkpt lat="48.71573" lon="1.79155">
        <ele>177</ele>
        <time>2014-04-20T10:29:53.000Z</time>
      </trkpt>
      <trkpt lat="48.71563" lon="1.79186">
        <ele>176</ele>
        <time>2014-04-20T10:30:00.000Z</time>
      </trkpt>
      <trkpt lat="48.71555" lon="1.79214">
        <ele>177</ele>
        <time>2014-04-20T10:30:06.000Z</time>
      </trkpt>
      <trkpt lat="48.71546" lon="1.79242">
        <ele>176.60000610352</ele>
        <time>2014-04-20T10:30:12.000Z</time>
      </trkpt>
      <trkpt lat="48.71536" lon="1.79275">
        <ele>176.60000610352</ele>
        <time>2014-04-20T10:30:19.000Z</time>
      </trkpt>
      <trkpt lat="48.71531" lon="1.79302">
        <ele>176</ele>
        <time>2014-04-20T10:30:25.000Z</time>
      </trkpt>
      <trkpt lat="48.71541" lon="1.79321">
        <ele>177.60000610352</ele>
        <time>2014-04-20T10:30:30.000Z</time>
      </trkpt>
      <trkpt lat="48.71563" lon="1.79339">
        <ele>175.60000610352</ele>
        <time>2014-04-20T10:30:38.000Z</time>
      </trkpt>
      <trkpt lat="48.71585" lon="1.79358">
        <ele>170.80000305176</ele>
        <time>2014-04-20T10:30:46.000Z</time>
      </trkpt>
      <trkpt lat="48.71602" lon="1.79371">
        <ele>167.39999389648</ele>
        <time>2014-04-20T10:30:52.000Z</time>
      </trkpt>
      <trkpt lat="48.71613" lon="1.79381">
        <ele>165.39999389648</ele>
        <time>2014-04-20T10:30:56.000Z</time>
      </trkpt>
      <trkpt lat="48.71633" lon="1.79393">
        <ele>166.39999389648</ele>
        <time>2014-04-20T10:31:02.000Z</time>
      </trkpt>
      <trkpt lat="48.71643" lon="1.79401">
        <ele>165.39999389648</ele>
        <time>2014-04-20T10:31:06.000Z</time>
      </trkpt>
      <trkpt lat="48.71656" lon="1.7941">
        <ele>164.60000610352</ele>
        <time>2014-04-20T10:31:10.000Z</time>
      </trkpt>
      <trkpt lat="48.71672" lon="1.79422">
        <ele>164</ele>
        <time>2014-04-20T10:31:15.000Z</time>
      </trkpt>
      <trkpt lat="48.71691" lon="1.79436">
        <ele>163</ele>
        <time>2014-04-20T10:31:21.000Z</time>
      </trkpt>
      <trkpt lat="48.71708" lon="1.79443">
        <ele>161.60000610352</ele>
        <time>2014-04-20T10:31:26.000Z</time>
      </trkpt>
      <trkpt lat="48.71716" lon="1.79447">
        <ele>161.19999694824</ele>
        <time>2014-04-20T10:31:29.000Z</time>
      </trkpt>
      <trkpt lat="48.71725" lon="1.79446">
        <ele>168.39999389648</ele>
        <time>2014-04-20T10:31:34.000Z</time>
      </trkpt>
      <trkpt lat="48.71732" lon="1.7945">
        <ele>168.39999389648</ele>
        <time>2014-04-20T10:31:40.000Z</time>
      </trkpt>
      <trkpt lat="48.71739" lon="1.79455">
        <ele>168.39999389648</ele>
        <time>2014-04-20T10:31:45.000Z</time>
      </trkpt>
      <trkpt lat="48.71749" lon="1.79462">
        <ele>168.80000305176</ele>
        <time>2014-04-20T10:31:53.000Z</time>
      </trkpt>
      <trkpt lat="48.71754" lon="1.79465">
        <ele>169.39999389648</ele>
        <time>2014-04-20T10:31:57.000Z</time>
      </trkpt>
      <trkpt lat="48.71761" lon="1.79469">
        <ele>170.19999694824</ele>
        <time>2014-04-20T10:32:01.000Z</time>
      </trkpt>
      <trkpt lat="48.7177" lon="1.79478">
        <ele>169.39999389648</ele>
        <time>2014-04-20T10:32:09.000Z</time>
      </trkpt>
      <trkpt lat="48.7178" lon="1.79484">
        <ele>171.19999694824</ele>
        <time>2014-04-20T10:32:15.000Z</time>
      </trkpt>
      <trkpt lat="48.71786" lon="1.79487">
        <ele>171.80000305176</ele>
        <time>2014-04-20T10:32:19.000Z</time>
      </trkpt>
      <trkpt lat="48.71789" lon="1.7949">
        <ele>171.19999694824</ele>
        <time>2014-04-20T10:32:22.000Z</time>
      </trkpt>
      <trkpt lat="48.71797" lon="1.79495">
        <ele>170.19999694824</ele>
        <time>2014-04-20T10:32:28.000Z</time>
      </trkpt>
      <trkpt lat="48.71806" lon="1.79501">
        <ele>170.19999694824</ele>
        <time>2014-04-20T10:32:35.000Z</time>
      </trkpt>
      <trkpt lat="48.71815" lon="1.79505">
        <ele>170.80000305176</ele>
        <time>2014-04-20T10:32:41.000Z</time>
      </trkpt>
      <trkpt lat="48.71822" lon="1.79512">
        <ele>170.19999694824</ele>
        <time>2014-04-20T10:32:48.000Z</time>
      </trkpt>
      <trkpt lat="48.7183" lon="1.79516">
        <ele>171.80000305176</ele>
        <time>2014-04-20T10:32:53.000Z</time>
      </trkpt>
      <trkpt lat="48.71842" lon="1.79527">
        <ele>173.60000610352</ele>
        <time>2014-04-20T10:33:03.000Z</time>
      </trkpt>
      <trkpt lat="48.71847" lon="1.79533">
        <ele>175.60000610352</ele>
        <time>2014-04-20T10:33:07.000Z</time>
      </trkpt>
      <trkpt lat="48.71856" lon="1.79537">
        <ele>177.60000610352</ele>
        <time>2014-04-20T10:33:13.000Z</time>
      </trkpt>
      <trkpt lat="48.71862" lon="1.79541">
        <ele>180</ele>
        <time>2014-04-20T10:33:18.000Z</time>
      </trkpt>
      <trkpt lat="48.71872" lon="1.79547">
        <ele>181.39999389648</ele>
        <time>2014-04-20T10:33:26.000Z</time>
      </trkpt>
      <trkpt lat="48.71878" lon="1.79553">
        <ele>180.39999389648</ele>
        <time>2014-04-20T10:33:32.000Z</time>
      </trkpt>
      <trkpt lat="48.71885" lon="1.79558">
        <ele>180.39999389648</ele>
        <time>2014-04-20T10:33:38.000Z</time>
      </trkpt>
      <trkpt lat="48.71899" lon="1.79567">
        <ele>182.39999389648</ele>
        <time>2014-04-20T10:33:49.000Z</time>
      </trkpt>
      <trkpt lat="48.71908" lon="1.79572">
        <ele>184.80000305176</ele>
        <time>2014-04-20T10:33:56.000Z</time>
      </trkpt>
      <trkpt lat="48.7192" lon="1.79579">
        <ele>186.19999694824</ele>
        <time>2014-04-20T10:34:05.000Z</time>
      </trkpt>
      <trkpt lat="48.71924" lon="1.79582">
        <ele>185.19999694824</ele>
        <time>2014-04-20T10:34:09.000Z</time>
      </trkpt>
      <trkpt lat="48.71936" lon="1.79591">
        <ele>181.39999389648</ele>
        <time>2014-04-20T10:34:21.000Z</time>
      </trkpt>
      <trkpt lat="48.7194" lon="1.796">
        <ele>180.80000305176</ele>
        <time>2014-04-20T10:34:27.000Z</time>
      </trkpt>
      <trkpt lat="48.71949" lon="1.79605">
        <ele>180.80000305176</ele>
        <time>2014-04-20T10:34:34.000Z</time>
      </trkpt>
      <trkpt lat="48.71958" lon="1.79608">
        <ele>180</ele>
        <time>2014-04-20T10:34:41.000Z</time>
      </trkpt>
      <trkpt lat="48.71966" lon="1.79613">
        <ele>178</ele>
        <time>2014-04-20T10:34:48.000Z</time>
      </trkpt>
      <trkpt lat="48.71967" lon="1.79614">
        <ele>178.39999389648</ele>
        <time>2014-04-20T10:34:49.000Z</time>
      </trkpt>
      <trkpt lat="48.71978" lon="1.79621">
        <ele>178.39999389648</ele>
        <time>2014-04-20T10:34:57.000Z</time>
      </trkpt>
      <trkpt lat="48.7199" lon="1.79629">
        <ele>179</ele>
        <time>2014-04-20T10:35:06.000Z</time>
      </trkpt>
      <trkpt lat="48.71996" lon="1.79634">
        <ele>178</ele>
        <time>2014-04-20T10:35:12.000Z</time>
      </trkpt>
      <trkpt lat="48.72004" lon="1.7964">
        <ele>177.60000610352</ele>
        <time>2014-04-20T10:35:19.000Z</time>
      </trkpt>
      <trkpt lat="48.72015" lon="1.79651">
        <ele>177.60000610352</ele>
        <time>2014-04-20T10:35:28.000Z</time>
      </trkpt>
      <trkpt lat="48.72023" lon="1.79659">
        <ele>176.60000610352</ele>
        <time>2014-04-20T10:35:35.000Z</time>
      </trkpt>
      <trkpt lat="48.72028" lon="1.79663">
        <ele>176.60000610352</ele>
        <time>2014-04-20T10:35:39.000Z</time>
      </trkpt>
      <trkpt lat="48.72031" lon="1.79666">
        <ele>175.60000610352</ele>
        <time>2014-04-20T10:35:42.000Z</time>
      </trkpt>
      <trkpt lat="48.72038" lon="1.79676">
        <ele>171.80000305176</ele>
        <time>2014-04-20T10:35:50.000Z</time>
      </trkpt>
      <trkpt lat="48.7205" lon="1.79683">
        <ele>173.19999694824</ele>
        <time>2014-04-20T10:35:58.000Z</time>
      </trkpt>
      <trkpt lat="48.72065" lon="1.79689">
        <ele>177</ele>
        <time>2014-04-20T10:36:06.000Z</time>
      </trkpt>
      <trkpt lat="48.72067" lon="1.79689">
        <ele>177.60000610352</ele>
        <time>2014-04-20T10:36:07.000Z</time>
      </trkpt>
      <trkpt lat="48.72073" lon="1.79691">
        <ele>179</ele>
        <time>2014-04-20T10:36:10.000Z</time>
      </trkpt>
      <trkpt lat="48.72081" lon="1.79697">
        <ele>180.39999389648</ele>
        <time>2014-04-20T10:36:17.000Z</time>
      </trkpt>
      <trkpt lat="48.72091" lon="1.79704">
        <ele>181.80000305176</ele>
        <time>2014-04-20T10:36:25.000Z</time>
      </trkpt>
      <trkpt lat="48.721" lon="1.79711">
        <ele>181.39999389648</ele>
        <time>2014-04-20T10:36:32.000Z</time>
      </trkpt>
      <trkpt lat="48.7211" lon="1.79719">
        <ele>179.39999389648</ele>
        <time>2014-04-20T10:36:40.000Z</time>
      </trkpt>
      <trkpt lat="48.72119" lon="1.79725">
        <ele>179.39999389648</ele>
        <time>2014-04-20T10:36:46.000Z</time>
      </trkpt>
      <trkpt lat="48.72128" lon="1.79729">
        <ele>180</ele>
        <time>2014-04-20T10:36:52.000Z</time>
      </trkpt>
      <trkpt lat="48.72137" lon="1.79737">
        <ele>180</ele>
        <time>2014-04-20T10:36:59.000Z</time>
      </trkpt>
      <trkpt lat="48.72138" lon="1.79738">
        <ele>179.39999389648</ele>
        <time>2014-04-20T10:37:00.000Z</time>
      </trkpt>
      <trkpt lat="48.72142" lon="1.79744">
        <ele>178</ele>
        <time>2014-04-20T10:37:05.000Z</time>
      </trkpt>
      <trkpt lat="48.72149" lon="1.79749">
        <ele>177.60000610352</ele>
        <time>2014-04-20T10:37:11.000Z</time>
      </trkpt>
      <trkpt lat="48.7215" lon="1.7975">
        <ele>177.60000610352</ele>
        <time>2014-04-20T10:37:12.000Z</time>
      </trkpt>
      <trkpt lat="48.72159" lon="1.79753">
        <ele>180</ele>
        <time>2014-04-20T10:37:17.000Z</time>
      </trkpt>
      <trkpt lat="48.72165" lon="1.79758">
        <ele>180.80000305176</ele>
        <time>2014-04-20T10:37:21.000Z</time>
      </trkpt>
      <trkpt lat="48.72176" lon="1.79763">
        <ele>182.80000305176</ele>
        <time>2014-04-20T10:37:28.000Z</time>
      </trkpt>
      <trkpt lat="48.7219" lon="1.79769">
        <ele>184.80000305176</ele>
        <time>2014-04-20T10:37:36.000Z</time>
      </trkpt>
      <trkpt lat="48.72197" lon="1.79775">
        <ele>184.19999694824</ele>
        <time>2014-04-20T10:37:41.000Z</time>
      </trkpt>
      <trkpt lat="48.72202" lon="1.79779">
        <ele>183.80000305176</ele>
        <time>2014-04-20T10:37:45.000Z</time>
      </trkpt>
      <trkpt lat="48.7221" lon="1.79785">
        <ele>181.80000305176</ele>
        <time>2014-04-20T10:37:51.000Z</time>
      </trkpt>
      <trkpt lat="48.72217" lon="1.79789">
        <ele>181.39999389648</ele>
        <time>2014-04-20T10:37:56.000Z</time>
      </trkpt>
      <trkpt lat="48.72229" lon="1.79797">
        <ele>180.39999389648</ele>
        <time>2014-04-20T10:38:05.000Z</time>
      </trkpt>
      <trkpt lat="48.72238" lon="1.79804">
        <ele>180</ele>
        <time>2014-04-20T10:38:12.000Z</time>
      </trkpt>
      <trkpt lat="48.72246" lon="1.79811">
        <ele>180</ele>
        <time>2014-04-20T10:38:19.000Z</time>
      </trkpt>
      <trkpt lat="48.72255" lon="1.79817">
        <ele>180.39999389648</ele>
        <time>2014-04-20T10:38:25.000Z</time>
      </trkpt>
      <trkpt lat="48.72266" lon="1.79823">
        <ele>180.80000305176</ele>
        <time>2014-04-20T10:38:32.000Z</time>
      </trkpt>
      <trkpt lat="48.72275" lon="1.7983">
        <ele>180.39999389648</ele>
        <time>2014-04-20T10:38:40.000Z</time>
      </trkpt>
      <trkpt lat="48.72282" lon="1.79836">
        <ele>179.39999389648</ele>
        <time>2014-04-20T10:38:46.000Z</time>
      </trkpt>
      <trkpt lat="48.72293" lon="1.79843">
        <ele>180.39999389648</ele>
        <time>2014-04-20T10:38:54.000Z</time>
      </trkpt>
      <trkpt lat="48.72295" lon="1.79843">
        <ele>180.80000305176</ele>
        <time>2014-04-20T10:38:55.000Z</time>
      </trkpt>
      <trkpt lat="48.72305" lon="1.79851">
        <ele>182.39999389648</ele>
        <time>2014-04-20T10:39:03.000Z</time>
      </trkpt>
      <trkpt lat="48.72308" lon="1.79854">
        <ele>181.80000305176</ele>
        <time>2014-04-20T10:39:05.000Z</time>
      </trkpt>
      <trkpt lat="48.72318" lon="1.79858">
        <ele>185.19999694824</ele>
        <time>2014-04-20T10:39:11.000Z</time>
      </trkpt>
      <trkpt lat="48.72326" lon="1.79866">
        <ele>184.19999694824</ele>
        <time>2014-04-20T10:39:18.000Z</time>
      </trkpt>
      <trkpt lat="48.72338" lon="1.79873">
        <ele>186.19999694824</ele>
        <time>2014-04-20T10:39:27.000Z</time>
      </trkpt>
      <trkpt lat="48.72345" lon="1.79879">
        <ele>185.19999694824</ele>
        <time>2014-04-20T10:39:33.000Z</time>
      </trkpt>
      <trkpt lat="48.72356" lon="1.79886">
        <ele>184.19999694824</ele>
        <time>2014-04-20T10:39:41.000Z</time>
      </trkpt>
      <trkpt lat="48.72365" lon="1.79893">
        <ele>185.19999694824</ele>
        <time>2014-04-20T10:39:48.000Z</time>
      </trkpt>
      <trkpt lat="48.72381" lon="1.79903">
        <ele>185.60000610352</ele>
        <time>2014-04-20T10:39:59.000Z</time>
      </trkpt>
      <trkpt lat="48.72395" lon="1.7991">
        <ele>188.60000610352</ele>
        <time>2014-04-20T10:40:08.000Z</time>
      </trkpt>
      <trkpt lat="48.72396" lon="1.79911">
        <ele>188.60000610352</ele>
        <time>2014-04-20T10:40:09.000Z</time>
      </trkpt>
      <trkpt lat="48.72406" lon="1.79918">
        <ele>188.60000610352</ele>
        <time>2014-04-20T10:40:17.000Z</time>
      </trkpt>
      <trkpt lat="48.72418" lon="1.79925">
        <ele>188</ele>
        <time>2014-04-20T10:40:22.000Z</time>
      </trkpt>
      <trkpt lat="48.72434" lon="1.79935">
        <ele>185.60000610352</ele>
        <time>2014-04-20T10:40:28.000Z</time>
      </trkpt>
      <trkpt lat="48.72442" lon="1.79942">
        <ele>184.80000305176</ele>
        <time>2014-04-20T10:40:32.000Z</time>
      </trkpt>
      <trkpt lat="48.72462" lon="1.79955">
        <ele>183.80000305176</ele>
        <time>2014-04-20T10:40:39.000Z</time>
      </trkpt>
      <trkpt lat="48.72477" lon="1.7996">
        <ele>184.19999694824</ele>
        <time>2014-04-20T10:40:43.000Z</time>
      </trkpt>
      <trkpt lat="48.72491" lon="1.79969">
        <ele>183.80000305176</ele>
        <time>2014-04-20T10:40:48.000Z</time>
      </trkpt>
      <trkpt lat="48.72508" lon="1.79981">
        <ele>181.39999389648</ele>
        <time>2014-04-20T10:40:54.000Z</time>
      </trkpt>
      <trkpt lat="48.72523" lon="1.7999">
        <ele>180</ele>
        <time>2014-04-20T10:40:59.000Z</time>
      </trkpt>
      <trkpt lat="48.72536" lon="1.80002">
        <ele>178</ele>
        <time>2014-04-20T10:41:04.000Z</time>
      </trkpt>
      <trkpt lat="48.7255" lon="1.80014">
        <ele>178</ele>
        <time>2014-04-20T10:41:09.000Z</time>
      </trkpt>
      <trkpt lat="48.72566" lon="1.80028">
        <ele>178</ele>
        <time>2014-04-20T10:41:15.000Z</time>
      </trkpt>
      <trkpt lat="48.7258" lon="1.80039">
        <ele>178</ele>
        <time>2014-04-20T10:41:20.000Z</time>
      </trkpt>
      <trkpt lat="48.7259" lon="1.80048">
        <ele>177.60000610352</ele>
        <time>2014-04-20T10:41:24.000Z</time>
      </trkpt>
      <trkpt lat="48.72609" lon="1.80059">
        <ele>178.39999389648</ele>
        <time>2014-04-20T10:41:30.000Z</time>
      </trkpt>
      <trkpt lat="48.72621" lon="1.80067">
        <ele>178.39999389648</ele>
        <time>2014-04-20T10:41:34.000Z</time>
      </trkpt>
      <trkpt lat="48.72638" lon="1.80076">
        <ele>178.39999389648</ele>
        <time>2014-04-20T10:41:39.000Z</time>
      </trkpt>
      <trkpt lat="48.72652" lon="1.80085">
        <ele>176.60000610352</ele>
        <time>2014-04-20T10:41:44.000Z</time>
      </trkpt>
      <trkpt lat="48.72664" lon="1.80093">
        <ele>176</ele>
        <time>2014-04-20T10:41:48.000Z</time>
      </trkpt>
      <trkpt lat="48.72677" lon="1.80104">
        <ele>174.60000610352</ele>
        <time>2014-04-20T10:41:53.000Z</time>
      </trkpt>
      <trkpt lat="48.72687" lon="1.80111">
        <ele>174.19999694824</ele>
        <time>2014-04-20T10:41:58.000Z</time>
      </trkpt>
      <trkpt lat="48.72694" lon="1.80117">
        <ele>173.60000610352</ele>
        <time>2014-04-20T10:42:04.000Z</time>
      </trkpt>
      <trkpt lat="48.72705" lon="1.80127">
        <ele>173.60000610352</ele>
        <time>2014-04-20T10:42:13.000Z</time>
      </trkpt>
      <trkpt lat="48.72717" lon="1.80137">
        <ele>173.60000610352</ele>
        <time>2014-04-20T10:42:23.000Z</time>
      </trkpt>
      <trkpt lat="48.7273" lon="1.80147">
        <ele>172.19999694824</ele>
        <time>2014-04-20T10:42:34.000Z</time>
      </trkpt>
      <trkpt lat="48.72744" lon="1.80157">
        <ele>171.19999694824</ele>
        <time>2014-04-20T10:42:45.000Z</time>
      </trkpt>
      <trkpt lat="48.72761" lon="1.80169">
        <ele>172.60000610352</ele>
        <time>2014-04-20T10:42:58.000Z</time>
      </trkpt>
      <trkpt lat="48.72769" lon="1.80175">
        <ele>172.19999694824</ele>
        <time>2014-04-20T10:43:05.000Z</time>
      </trkpt>
      <trkpt lat="48.72781" lon="1.80184">
        <ele>171.80000305176</ele>
        <time>2014-04-20T10:43:15.000Z</time>
      </trkpt>
      <trkpt lat="48.72786" lon="1.80188">
        <ele>171.80000305176</ele>
        <time>2014-04-20T10:43:19.000Z</time>
      </trkpt>
      <trkpt lat="48.72798" lon="1.80198">
        <ele>170.80000305176</ele>
        <time>2014-04-20T10:43:29.000Z</time>
      </trkpt>
      <trkpt lat="48.72812" lon="1.80208">
        <ele>170.80000305176</ele>
        <time>2014-04-20T10:43:41.000Z</time>
      </trkpt>
      <trkpt lat="48.72821" lon="1.80215">
        <ele>171.19999694824</ele>
        <time>2014-04-20T10:43:48.000Z</time>
      </trkpt>
      <trkpt lat="48.72823" lon="1.80217">
        <ele>171.19999694824</ele>
        <time>2014-04-20T10:43:52.000Z</time>
      </trkpt>
      <trkpt lat="48.72827" lon="1.80219">
        <ele>171.80000305176</ele>
        <time>2014-04-20T10:43:59.000Z</time>
      </trkpt>
      <trkpt lat="48.72841" lon="1.80226">
        <ele>173.19999694824</ele>
        <time>2014-04-20T10:44:07.000Z</time>
      </trkpt>
      <trkpt lat="48.72852" lon="1.80234">
        <ele>170.80000305176</ele>
        <time>2014-04-20T10:44:16.000Z</time>
      </trkpt>
      <trkpt lat="48.72862" lon="1.8024">
        <ele>171.80000305176</ele>
        <time>2014-04-20T10:44:23.000Z</time>
      </trkpt>
      <trkpt lat="48.72872" lon="1.80249">
        <ele>171.80000305176</ele>
        <time>2014-04-20T10:44:31.000Z</time>
      </trkpt>
      <trkpt lat="48.72874" lon="1.8025">
        <ele>171.19999694824</ele>
        <time>2014-04-20T10:44:33.000Z</time>
      </trkpt>
      <trkpt lat="48.72882" lon="1.80254">
        <ele>171.80000305176</ele>
        <time>2014-04-20T10:44:39.000Z</time>
      </trkpt>
      <trkpt lat="48.72896" lon="1.80265">
        <ele>170.19999694824</ele>
        <time>2014-04-20T10:44:51.000Z</time>
      </trkpt>
      <trkpt lat="48.72909" lon="1.80276">
        <ele>170.19999694824</ele>
        <time>2014-04-20T10:45:02.000Z</time>
      </trkpt>
      <trkpt lat="48.7291" lon="1.80277">
        <ele>170.80000305176</ele>
        <time>2014-04-20T10:45:03.000Z</time>
      </trkpt>
      <trkpt lat="48.7292" lon="1.80282">
        <ele>170.19999694824</ele>
        <time>2014-04-20T10:45:12.000Z</time>
      </trkpt>
      <trkpt lat="48.72924" lon="1.80285">
        <ele>170.19999694824</ele>
        <time>2014-04-20T10:45:15.000Z</time>
      </trkpt>
      <trkpt lat="48.72928" lon="1.8029">
        <ele>170.19999694824</ele>
        <time>2014-04-20T10:45:19.000Z</time>
      </trkpt>
      <trkpt lat="48.72941" lon="1.80295">
        <ele>171.19999694824</ele>
        <time>2014-04-20T10:45:28.000Z</time>
      </trkpt>
      <trkpt lat="48.72948" lon="1.80297">
        <ele>172.19999694824</ele>
        <time>2014-04-20T10:45:33.000Z</time>
      </trkpt>
      <trkpt lat="48.72956" lon="1.80306">
        <ele>173.19999694824</ele>
        <time>2014-04-20T10:45:40.000Z</time>
      </trkpt>
      <trkpt lat="48.72964" lon="1.80311">
        <ele>174.60000610352</ele>
        <time>2014-04-20T10:45:47.000Z</time>
      </trkpt>
      <trkpt lat="48.72979" lon="1.8032">
        <ele>180</ele>
        <time>2014-04-20T10:45:58.000Z</time>
      </trkpt>
      <trkpt lat="48.7299" lon="1.80327">
        <ele>181.39999389648</ele>
        <time>2014-04-20T10:46:06.000Z</time>
      </trkpt>
      <trkpt lat="48.73006" lon="1.80337">
        <ele>180.39999389648</ele>
        <time>2014-04-20T10:46:18.000Z</time>
      </trkpt>
      <trkpt lat="48.73017" lon="1.80347">
        <ele>180.39999389648</ele>
        <time>2014-04-20T10:46:28.000Z</time>
      </trkpt>
      <trkpt lat="48.73021" lon="1.80349">
        <ele>180.80000305176</ele>
        <time>2014-04-20T10:46:31.000Z</time>
      </trkpt>
      <trkpt lat="48.73027" lon="1.80354">
        <ele>180</ele>
        <time>2014-04-20T10:46:37.000Z</time>
      </trkpt>
      <trkpt lat="48.73028" lon="1.80356">
        <ele>179.39999389648</ele>
        <time>2014-04-20T10:46:39.000Z</time>
      </trkpt>
      <trkpt lat="48.7304" lon="1.80366">
        <ele>177.60000610352</ele>
        <time>2014-04-20T10:46:49.000Z</time>
      </trkpt>
      <trkpt lat="48.73043" lon="1.80367">
        <ele>176.60000610352</ele>
        <time>2014-04-20T10:46:51.000Z</time>
      </trkpt>
      <trkpt lat="48.73052" lon="1.80371">
        <ele>177.60000610352</ele>
        <time>2014-04-20T10:46:57.000Z</time>
      </trkpt>
      <trkpt lat="48.73064" lon="1.80378">
        <ele>180</ele>
        <time>2014-04-20T10:47:05.000Z</time>
      </trkpt>
      <trkpt lat="48.73079" lon="1.80388">
        <ele>180</ele>
        <time>2014-04-20T10:47:16.000Z</time>
      </trkpt>
      <trkpt lat="48.73093" lon="1.80399">
        <ele>180.39999389648</ele>
        <time>2014-04-20T10:47:27.000Z</time>
      </trkpt>
      <trkpt lat="48.73099" lon="1.80404">
        <ele>179.39999389648</ele>
        <time>2014-04-20T10:47:32.000Z</time>
      </trkpt>
      <trkpt lat="48.7311" lon="1.80413">
        <ele>180.39999389648</ele>
        <time>2014-04-20T10:47:41.000Z</time>
      </trkpt>
      <trkpt lat="48.73121" lon="1.80424">
        <ele>179.39999389648</ele>
        <time>2014-04-20T10:47:51.000Z</time>
      </trkpt>
      <trkpt lat="48.73136" lon="1.80436">
        <ele>178.39999389648</ele>
        <time>2014-04-20T10:48:03.000Z</time>
      </trkpt>
      <trkpt lat="48.73144" lon="1.80442">
        <ele>179</ele>
        <time>2014-04-20T10:48:09.000Z</time>
      </trkpt>
      <trkpt lat="48.73159" lon="1.80454">
        <ele>180.39999389648</ele>
        <time>2014-04-20T10:48:20.000Z</time>
      </trkpt>
      <trkpt lat="48.73172" lon="1.80465">
        <ele>180.80000305176</ele>
        <time>2014-04-20T10:48:31.000Z</time>
      </trkpt>
      <trkpt lat="48.7318" lon="1.80474">
        <ele>180.80000305176</ele>
        <time>2014-04-20T10:48:38.000Z</time>
      </trkpt>
      <trkpt lat="48.73191" lon="1.80484">
        <ele>181.39999389648</ele>
        <time>2014-04-20T10:48:47.000Z</time>
      </trkpt>
      <trkpt lat="48.732" lon="1.80491">
        <ele>183.80000305176</ele>
        <time>2014-04-20T10:48:54.000Z</time>
      </trkpt>
      <trkpt lat="48.73207" lon="1.80496">
        <ele>184.80000305176</ele>
        <time>2014-04-20T10:48:59.000Z</time>
      </trkpt>
      <trkpt lat="48.73218" lon="1.80504">
        <ele>187.19999694824</ele>
        <time>2014-04-20T10:49:08.000Z</time>
      </trkpt>
      <trkpt lat="48.73227" lon="1.8051">
        <ele>187.19999694824</ele>
        <time>2014-04-20T10:49:16.000Z</time>
      </trkpt>
      <trkpt lat="48.73233" lon="1.80515">
        <ele>186.60000610352</ele>
        <time>2014-04-20T10:49:22.000Z</time>
      </trkpt>
      <trkpt lat="48.73235" lon="1.80518">
        <ele>186.60000610352</ele>
        <time>2014-04-20T10:49:24.000Z</time>
      </trkpt>
      <trkpt lat="48.73243" lon="1.80523">
        <ele>188.60000610352</ele>
        <time>2014-04-20T10:49:30.000Z</time>
      </trkpt>
      <trkpt lat="48.73254" lon="1.80534">
        <ele>188</ele>
        <time>2014-04-20T10:49:39.000Z</time>
      </trkpt>
      <trkpt lat="48.73261" lon="1.80542">
        <ele>186.19999694824</ele>
        <time>2014-04-20T10:49:46.000Z</time>
      </trkpt>
      <trkpt lat="48.73261" lon="1.80544">
        <ele>186.60000610352</ele>
        <time>2014-04-20T10:49:47.000Z</time>
      </trkpt>
      <trkpt lat="48.73265" lon="1.80548">
        <ele>187.19999694824</ele>
        <time>2014-04-20T10:49:51.000Z</time>
      </trkpt>
      <trkpt lat="48.73272" lon="1.80555">
        <ele>184.80000305176</ele>
        <time>2014-04-20T10:49:57.000Z</time>
      </trkpt>
      <trkpt lat="48.73277" lon="1.80559">
        <ele>184.80000305176</ele>
        <time>2014-04-20T10:50:01.000Z</time>
      </trkpt>
      <trkpt lat="48.73288" lon="1.80569">
        <ele>185.19999694824</ele>
        <time>2014-04-20T10:50:10.000Z</time>
      </trkpt>
      <trkpt lat="48.73297" lon="1.80577">
        <ele>184.19999694824</ele>
        <time>2014-04-20T10:50:17.000Z</time>
      </trkpt>
      <trkpt lat="48.73305" lon="1.80585">
        <ele>184.80000305176</ele>
        <time>2014-04-20T10:50:24.000Z</time>
      </trkpt>
      <trkpt lat="48.73314" lon="1.80593">
        <ele>182.80000305176</ele>
        <time>2014-04-20T10:50:31.000Z</time>
      </trkpt>
      <trkpt lat="48.73322" lon="1.806">
        <ele>184.80000305176</ele>
        <time>2014-04-20T10:50:38.000Z</time>
      </trkpt>
      <trkpt lat="48.73326" lon="1.80606">
        <ele>184.80000305176</ele>
        <time>2014-04-20T10:50:42.000Z</time>
      </trkpt>
      <trkpt lat="48.73335" lon="1.80613">
        <ele>183.80000305176</ele>
        <time>2014-04-20T10:50:48.000Z</time>
      </trkpt>
      <trkpt lat="48.73348" lon="1.80625">
        <ele>187.60000610352</ele>
        <time>2014-04-20T10:50:59.000Z</time>
      </trkpt>
      <trkpt lat="48.73361" lon="1.80636">
        <ele>186.60000610352</ele>
        <time>2014-04-20T10:51:08.000Z</time>
      </trkpt>
      <trkpt lat="48.73371" lon="1.80645">
        <ele>189</ele>
        <time>2014-04-20T10:51:16.000Z</time>
      </trkpt>
      <trkpt lat="48.73381" lon="1.80653">
        <ele>188.60000610352</ele>
        <time>2014-04-20T10:51:24.000Z</time>
      </trkpt>
      <trkpt lat="48.73388" lon="1.80661">
        <ele>187.19999694824</ele>
        <time>2014-04-20T10:51:31.000Z</time>
      </trkpt>
      <trkpt lat="48.734" lon="1.80671">
        <ele>187.19999694824</ele>
        <time>2014-04-20T10:51:40.000Z</time>
      </trkpt>
      <trkpt lat="48.73402" lon="1.80672">
        <ele>189</ele>
        <time>2014-04-20T10:51:42.000Z</time>
      </trkpt>
      <trkpt lat="48.7341" lon="1.8068">
        <ele>188.60000610352</ele>
        <time>2014-04-20T10:51:49.000Z</time>
      </trkpt>
      <trkpt lat="48.73419" lon="1.8069">
        <ele>188</ele>
        <time>2014-04-20T10:51:57.000Z</time>
      </trkpt>
      <trkpt lat="48.73429" lon="1.80701">
        <ele>188</ele>
        <time>2014-04-20T10:52:05.000Z</time>
      </trkpt>
      <trkpt lat="48.7343" lon="1.80702">
        <ele>188</ele>
        <time>2014-04-20T10:52:06.000Z</time>
      </trkpt>
      <trkpt lat="48.73441" lon="1.80708">
        <ele>189</ele>
        <time>2014-04-20T10:52:13.000Z</time>
      </trkpt>
      <trkpt lat="48.73442" lon="1.80709">
        <ele>188.60000610352</ele>
        <time>2014-04-20T10:52:14.000Z</time>
      </trkpt>
      <trkpt lat="48.73451" lon="1.80718">
        <ele>189</ele>
        <time>2014-04-20T10:52:22.000Z</time>
      </trkpt>
      <trkpt lat="48.73459" lon="1.80728">
        <ele>188</ele>
        <time>2014-04-20T10:52:30.000Z</time>
      </trkpt>
      <trkpt lat="48.73468" lon="1.80736">
        <ele>190.39999389648</ele>
        <time>2014-04-20T10:52:37.000Z</time>
      </trkpt>
      <trkpt lat="48.73481" lon="1.80746">
        <ele>190.39999389648</ele>
        <time>2014-04-20T10:52:46.000Z</time>
      </trkpt>
      <trkpt lat="48.73487" lon="1.8075">
        <ele>188</ele>
        <time>2014-04-20T10:52:51.000Z</time>
      </trkpt>
      <trkpt lat="48.73491" lon="1.80754">
        <ele>188.60000610352</ele>
        <time>2014-04-20T10:52:55.000Z</time>
      </trkpt>
      <trkpt lat="48.73497" lon="1.80761">
        <ele>188.60000610352</ele>
        <time>2014-04-20T10:53:02.000Z</time>
      </trkpt>
      <trkpt lat="48.73505" lon="1.8077">
        <ele>188.60000610352</ele>
        <time>2014-04-20T10:53:10.000Z</time>
      </trkpt>
      <trkpt lat="48.73513" lon="1.80778">
        <ele>190.39999389648</ele>
        <time>2014-04-20T10:53:17.000Z</time>
      </trkpt>
      <trkpt lat="48.73521" lon="1.80785">
        <ele>190.39999389648</ele>
        <time>2014-04-20T10:53:23.000Z</time>
      </trkpt>
      <trkpt lat="48.73523" lon="1.80786">
        <ele>190.39999389648</ele>
        <time>2014-04-20T10:53:24.000Z</time>
      </trkpt>
      <trkpt lat="48.73528" lon="1.80793">
        <ele>191.39999389648</ele>
        <time>2014-04-20T10:53:29.000Z</time>
      </trkpt>
      <trkpt lat="48.73536" lon="1.80801">
        <ele>189.60000610352</ele>
        <time>2014-04-20T10:53:35.000Z</time>
      </trkpt>
      <trkpt lat="48.73542" lon="1.80806">
        <ele>188</ele>
        <time>2014-04-20T10:53:40.000Z</time>
      </trkpt>
      <trkpt lat="48.73552" lon="1.80818">
        <ele>185.19999694824</ele>
        <time>2014-04-20T10:53:49.000Z</time>
      </trkpt>
      <trkpt lat="48.73557" lon="1.80822">
        <ele>184.80000305176</ele>
        <time>2014-04-20T10:53:53.000Z</time>
      </trkpt>
      <trkpt lat="48.73562" lon="1.80827">
        <ele>184.19999694824</ele>
        <time>2014-04-20T10:53:58.000Z</time>
      </trkpt>
      <trkpt lat="48.73567" lon="1.80833">
        <ele>184.19999694824</ele>
        <time>2014-04-20T10:54:04.000Z</time>
      </trkpt>
      <trkpt lat="48.73576" lon="1.80844">
        <ele>183.80000305176</ele>
        <time>2014-04-20T10:54:12.000Z</time>
      </trkpt>
      <trkpt lat="48.73579" lon="1.80845">
        <ele>184.19999694824</ele>
        <time>2014-04-20T10:54:14.000Z</time>
      </trkpt>
      <trkpt lat="48.73582" lon="1.80846">
        <ele>184.19999694824</ele>
        <time>2014-04-20T10:54:20.000Z</time>
      </trkpt>
      <trkpt lat="48.73585" lon="1.80853">
        <ele>190.39999389648</ele>
        <time>2014-04-20T11:16:34.000Z</time>
      </trkpt>
      <trkpt lat="48.73585" lon="1.80855">
        <ele>190</ele>
        <time>2014-04-20T11:16:35.000Z</time>
      </trkpt>
      <trkpt lat="48.73586" lon="1.80855">
        <ele>190</ele>
        <time>2014-04-20T11:16:37.000Z</time>
      </trkpt>
      <trkpt lat="48.73585" lon="1.80838">
        <ele>188.60000610352</ele>
        <time>2014-04-20T11:24:20.000Z</time>
      </trkpt>
      <trkpt lat="48.73582" lon="1.80831">
        <ele>186.60000610352</ele>
        <time>2014-04-20T11:24:25.000Z</time>
      </trkpt>
      <trkpt lat="48.73581" lon="1.80827">
        <ele>185.60000610352</ele>
        <time>2014-04-20T11:24:27.000Z</time>
      </trkpt>
      <trkpt lat="48.73581" lon="1.80811">
        <ele>181.39999389648</ele>
        <time>2014-04-20T11:24:35.000Z</time>
      </trkpt>
      <trkpt lat="48.73581" lon="1.80808">
        <ele>181.39999389648</ele>
        <time>2014-04-20T11:24:36.000Z</time>
      </trkpt>
      <trkpt lat="48.7358" lon="1.80798">
        <ele>180.80000305176</ele>
        <time>2014-04-20T11:24:43.000Z</time>
      </trkpt>
      <trkpt lat="48.7358" lon="1.8079">
        <ele>178</ele>
        <time>2014-04-20T11:24:47.000Z</time>
      </trkpt>
      <trkpt lat="48.73581" lon="1.80781">
        <ele>173.60000610352</ele>
        <time>2014-04-20T11:24:52.000Z</time>
      </trkpt>
      <trkpt lat="48.7358" lon="1.80767">
        <ele>169.80000305176</ele>
        <time>2014-04-20T11:25:00.000Z</time>
      </trkpt>
      <trkpt lat="48.73579" lon="1.80753">
        <ele>168.39999389648</ele>
        <time>2014-04-20T11:25:06.000Z</time>
      </trkpt>
      <trkpt lat="48.7358" lon="1.80743">
        <ele>165.39999389648</ele>
        <time>2014-04-20T11:25:11.000Z</time>
      </trkpt>
      <trkpt lat="48.73579" lon="1.8073">
        <ele>163</ele>
        <time>2014-04-20T11:25:17.000Z</time>
      </trkpt>
      <trkpt lat="48.73578" lon="1.80711">
        <ele>161.60000610352</ele>
        <time>2014-04-20T11:25:26.000Z</time>
      </trkpt>
      <trkpt lat="48.73576" lon="1.80698">
        <ele>160.19999694824</ele>
        <time>2014-04-20T11:25:31.000Z</time>
      </trkpt>
      <trkpt lat="48.73575" lon="1.80692">
        <ele>158.80000305176</ele>
        <time>2014-04-20T11:25:34.000Z</time>
      </trkpt>
      <trkpt lat="48.73575" lon="1.80689">
        <ele>157.80000305176</ele>
        <time>2014-04-20T11:25:36.000Z</time>
      </trkpt>
      <trkpt lat="48.73573" lon="1.80674">
        <ele>160.60000610352</ele>
        <time>2014-04-20T11:25:42.000Z</time>
      </trkpt>
      <trkpt lat="48.73572" lon="1.80662">
        <ele>161.60000610352</ele>
        <time>2014-04-20T11:25:47.000Z</time>
      </trkpt>
      <trkpt lat="48.73573" lon="1.80647">
        <ele>162.19999694824</ele>
        <time>2014-04-20T11:25:55.000Z</time>
      </trkpt>
      <trkpt lat="48.73572" lon="1.80636">
        <ele>164</ele>
        <time>2014-04-20T11:26:00.000Z</time>
      </trkpt>
      <trkpt lat="48.73572" lon="1.80624">
        <ele>166</ele>
        <time>2014-04-20T11:26:06.000Z</time>
      </trkpt>
      <trkpt lat="48.73572" lon="1.80611">
        <ele>166.39999389648</ele>
        <time>2014-04-20T11:26:12.000Z</time>
      </trkpt>
      <trkpt lat="48.73572" lon="1.80601">
        <ele>164</ele>
        <time>2014-04-20T11:26:16.000Z</time>
      </trkpt>
      <trkpt lat="48.73567" lon="1.80578">
        <ele>172.60000610352</ele>
        <time>2014-04-20T11:26:24.000Z</time>
      </trkpt>
      <trkpt lat="48.73566" lon="1.80563">
        <ele>172.60000610352</ele>
        <time>2014-04-20T11:26:29.000Z</time>
      </trkpt>
      <trkpt lat="48.73563" lon="1.80551">
        <ele>176.60000610352</ele>
        <time>2014-04-20T11:26:36.000Z</time>
      </trkpt>
      <trkpt lat="48.73564" lon="1.8054">
        <ele>178</ele>
        <time>2014-04-20T11:26:42.000Z</time>
      </trkpt>
      <trkpt lat="48.73564" lon="1.80527">
        <ele>179.39999389648</ele>
        <time>2014-04-20T11:26:47.000Z</time>
      </trkpt>
      <trkpt lat="48.73564" lon="1.80525">
        <ele>179</ele>
        <time>2014-04-20T11:26:48.000Z</time>
      </trkpt>
      <trkpt lat="48.73564" lon="1.80513">
        <ele>176.60000610352</ele>
        <time>2014-04-20T11:26:54.000Z</time>
      </trkpt>
      <trkpt lat="48.73565" lon="1.805">
        <ele>173.60000610352</ele>
        <time>2014-04-20T11:27:00.000Z</time>
      </trkpt>
      <trkpt lat="48.73563" lon="1.8049">
        <ele>173.60000610352</ele>
        <time>2014-04-20T11:27:05.000Z</time>
      </trkpt>
      <trkpt lat="48.73563" lon="1.80486">
        <ele>172.60000610352</ele>
        <time>2014-04-20T11:27:07.000Z</time>
      </trkpt>
      <trkpt lat="48.73564" lon="1.80475">
        <ele>171.19999694824</ele>
        <time>2014-04-20T11:27:11.000Z</time>
      </trkpt>
      <trkpt lat="48.73564" lon="1.80463">
        <ele>168.39999389648</ele>
        <time>2014-04-20T11:27:15.000Z</time>
      </trkpt>
      <trkpt lat="48.73563" lon="1.80455">
        <ele>168.39999389648</ele>
        <time>2014-04-20T11:27:20.000Z</time>
      </trkpt>
      <trkpt lat="48.73562" lon="1.8045">
        <ele>168.80000305176</ele>
        <time>2014-04-20T11:27:23.000Z</time>
      </trkpt>
      <trkpt lat="48.73562" lon="1.80436">
        <ele>164</ele>
        <time>2014-04-20T11:27:31.000Z</time>
      </trkpt>
      <trkpt lat="48.7356" lon="1.80426">
        <ele>168.80000305176</ele>
        <time>2014-04-20T11:27:36.000Z</time>
      </trkpt>
      <trkpt lat="48.73561" lon="1.8041">
        <ele>165.39999389648</ele>
        <time>2014-04-20T11:27:43.000Z</time>
      </trkpt>
      <trkpt lat="48.73558" lon="1.80403">
        <ele>169.80000305176</ele>
        <time>2014-04-20T11:27:47.000Z</time>
      </trkpt>
      <trkpt lat="48.73558" lon="1.80401">
        <ele>170.19999694824</ele>
        <time>2014-04-20T11:27:48.000Z</time>
      </trkpt>
      <trkpt lat="48.73557" lon="1.80386">
        <ele>177.60000610352</ele>
        <time>2014-04-20T11:27:55.000Z</time>
      </trkpt>
      <trkpt lat="48.73557" lon="1.80383">
        <ele>179.39999389648</ele>
        <time>2014-04-20T11:27:57.000Z</time>
      </trkpt>
      <trkpt lat="48.73555" lon="1.80372">
        <ele>180.80000305176</ele>
        <time>2014-04-20T11:28:02.000Z</time>
      </trkpt>
      <trkpt lat="48.73554" lon="1.80365">
        <ele>183.19999694824</ele>
        <time>2014-04-20T11:28:07.000Z</time>
      </trkpt>
      <trkpt lat="48.73554" lon="1.80361">
        <ele>183.19999694824</ele>
        <time>2014-04-20T11:28:09.000Z</time>
      </trkpt>
      <trkpt lat="48.73552" lon="1.80344">
        <ele>182.39999389648</ele>
        <time>2014-04-20T11:28:16.000Z</time>
      </trkpt>
      <trkpt lat="48.73552" lon="1.80331">
        <ele>180.39999389648</ele>
        <time>2014-04-20T11:28:21.000Z</time>
      </trkpt>
      <trkpt lat="48.73552" lon="1.80314">
        <ele>179</ele>
        <time>2014-04-20T11:28:27.000Z</time>
      </trkpt>
      <trkpt lat="48.73553" lon="1.80302">
        <ele>178</ele>
        <time>2014-04-20T11:28:32.000Z</time>
      </trkpt>
      <trkpt lat="48.73553" lon="1.803">
        <ele>177.60000610352</ele>
        <time>2014-04-20T11:28:35.000Z</time>
      </trkpt>
      <trkpt lat="48.73552" lon="1.80289">
        <ele>178</ele>
        <time>2014-04-20T11:28:46.000Z</time>
      </trkpt>
      <trkpt lat="48.73552" lon="1.80276">
        <ele>178</ele>
        <time>2014-04-20T11:28:51.000Z</time>
      </trkpt>
      <trkpt lat="48.73551" lon="1.80266">
        <ele>176</ele>
        <time>2014-04-20T11:28:56.000Z</time>
      </trkpt>
      <trkpt lat="48.73552" lon="1.8025">
        <ele>172.19999694824</ele>
        <time>2014-04-20T11:29:03.000Z</time>
      </trkpt>
      <trkpt lat="48.73552" lon="1.80237">
        <ele>168.80000305176</ele>
        <time>2014-04-20T11:29:10.000Z</time>
      </trkpt>
      <trkpt lat="48.73552" lon="1.80225">
        <ele>165.39999389648</ele>
        <time>2014-04-20T11:29:16.000Z</time>
      </trkpt>
      <trkpt lat="48.73552" lon="1.80221">
        <ele>164.60000610352</ele>
        <time>2014-04-20T11:29:18.000Z</time>
      </trkpt>
      <trkpt lat="48.73552" lon="1.80201">
        <ele>163</ele>
        <time>2014-04-20T11:29:27.000Z</time>
      </trkpt>
      <trkpt lat="48.7355" lon="1.80186">
        <ele>164</ele>
        <time>2014-04-20T11:29:34.000Z</time>
      </trkpt>
      <trkpt lat="48.73548" lon="1.80172">
        <ele>162.60000610352</ele>
        <time>2014-04-20T11:29:41.000Z</time>
      </trkpt>
      <trkpt lat="48.73548" lon="1.80168">
        <ele>163.60000610352</ele>
        <time>2014-04-20T11:29:43.000Z</time>
      </trkpt>
      <trkpt lat="48.73549" lon="1.80147">
        <ele>159.80000305176</ele>
        <time>2014-04-20T11:29:53.000Z</time>
      </trkpt>
      <trkpt lat="48.73549" lon="1.80133">
        <ele>157.80000305176</ele>
        <time>2014-04-20T11:30:00.000Z</time>
      </trkpt>
      <trkpt lat="48.7355" lon="1.80117">
        <ele>155.39999389648</ele>
        <time>2014-04-20T11:30:08.000Z</time>
      </trkpt>
      <trkpt lat="48.73549" lon="1.80106">
        <ele>155.80000305176</ele>
        <time>2014-04-20T11:30:13.000Z</time>
      </trkpt>
      <trkpt lat="48.73547" lon="1.8009">
        <ele>160.19999694824</ele>
        <time>2014-04-20T11:30:19.000Z</time>
      </trkpt>
      <trkpt lat="48.73546" lon="1.80083">
        <ele>163</ele>
        <time>2014-04-20T11:30:23.000Z</time>
      </trkpt>
      <trkpt lat="48.73546" lon="1.80079">
        <ele>162.60000610352</ele>
        <time>2014-04-20T11:30:25.000Z</time>
      </trkpt>
      <trkpt lat="48.73546" lon="1.80062">
        <ele>161.19999694824</ele>
        <time>2014-04-20T11:30:33.000Z</time>
      </trkpt>
      <trkpt lat="48.73546" lon="1.80059">
        <ele>161.19999694824</ele>
        <time>2014-04-20T11:30:34.000Z</time>
      </trkpt>
      <trkpt lat="48.73544" lon="1.8004">
        <ele>164</ele>
        <time>2014-04-20T11:30:42.000Z</time>
      </trkpt>
      <trkpt lat="48.73544" lon="1.80029">
        <ele>167.39999389648</ele>
        <time>2014-04-20T11:30:47.000Z</time>
      </trkpt>
      <trkpt lat="48.73544" lon="1.80025">
        <ele>167.80000305176</ele>
        <time>2014-04-20T11:30:49.000Z</time>
      </trkpt>
      <trkpt lat="48.73542" lon="1.80013">
        <ele>171.19999694824</ele>
        <time>2014-04-20T11:30:55.000Z</time>
      </trkpt>
      <trkpt lat="48.73543" lon="1.80008">
        <ele>170.80000305176</ele>
        <time>2014-04-20T11:30:58.000Z</time>
      </trkpt>
      <trkpt lat="48.73542" lon="1.79993">
        <ele>172.19999694824</ele>
        <time>2014-04-20T11:31:04.000Z</time>
      </trkpt>
      <trkpt lat="48.73541" lon="1.79991">
        <ele>172.19999694824</ele>
        <time>2014-04-20T11:31:05.000Z</time>
      </trkpt>
      <trkpt lat="48.73541" lon="1.79978">
        <ele>176.60000610352</ele>
        <time>2014-04-20T11:31:11.000Z</time>
      </trkpt>
      <trkpt lat="48.73542" lon="1.79968">
        <ele>178</ele>
        <time>2014-04-20T11:31:17.000Z</time>
      </trkpt>
      <trkpt lat="48.73541" lon="1.79961">
        <ele>179</ele>
        <time>2014-04-20T11:31:21.000Z</time>
      </trkpt>
      <trkpt lat="48.7354" lon="1.79951">
        <ele>177</ele>
        <time>2014-04-20T11:31:26.000Z</time>
      </trkpt>
      <trkpt lat="48.7354" lon="1.79945">
        <ele>176</ele>
        <time>2014-04-20T11:31:29.000Z</time>
      </trkpt>
      <trkpt lat="48.73541" lon="1.79935">
        <ele>172.19999694824</ele>
        <time>2014-04-20T11:31:34.000Z</time>
      </trkpt>
      <trkpt lat="48.73541" lon="1.79925">
        <ele>170.19999694824</ele>
        <time>2014-04-20T11:31:38.000Z</time>
      </trkpt>
      <trkpt lat="48.7354" lon="1.7992">
        <ele>170.19999694824</ele>
        <time>2014-04-20T11:31:40.000Z</time>
      </trkpt>
      <trkpt lat="48.7354" lon="1.79911">
        <ele>167.80000305176</ele>
        <time>2014-04-20T11:31:44.000Z</time>
      </trkpt>
      <trkpt lat="48.7354" lon="1.79908">
        <ele>166.39999389648</ele>
        <time>2014-04-20T11:31:46.000Z</time>
      </trkpt>
      <trkpt lat="48.73537" lon="1.79891">
        <ele>167.80000305176</ele>
        <time>2014-04-20T11:31:53.000Z</time>
      </trkpt>
      <trkpt lat="48.73535" lon="1.79877">
        <ele>169.80000305176</ele>
        <time>2014-04-20T11:32:00.000Z</time>
      </trkpt>
      <trkpt lat="48.73533" lon="1.79861">
        <ele>171.19999694824</ele>
        <time>2014-04-20T11:32:07.000Z</time>
      </trkpt>
      <trkpt lat="48.73533" lon="1.79842">
        <ele>171.19999694824</ele>
        <time>2014-04-20T11:32:15.000Z</time>
      </trkpt>
      <trkpt lat="48.73533" lon="1.7984">
        <ele>171.19999694824</ele>
        <time>2014-04-20T11:32:16.000Z</time>
      </trkpt>
      <trkpt lat="48.73532" lon="1.79833">
        <ele>169.80000305176</ele>
        <time>2014-04-20T11:32:20.000Z</time>
      </trkpt>
      <trkpt lat="48.73532" lon="1.79829">
        <ele>169.80000305176</ele>
        <time>2014-04-20T11:32:22.000Z</time>
      </trkpt>
      <trkpt lat="48.73532" lon="1.79818">
        <ele>169.39999389648</ele>
        <time>2014-04-20T11:32:27.000Z</time>
      </trkpt>
      <trkpt lat="48.73531" lon="1.79807">
        <ele>171.80000305176</ele>
        <time>2014-04-20T11:32:32.000Z</time>
      </trkpt>
      <trkpt lat="48.7353" lon="1.79798">
        <ele>173.60000610352</ele>
        <time>2014-04-20T11:32:37.000Z</time>
      </trkpt>
      <trkpt lat="48.73527" lon="1.79779">
        <ele>176</ele>
        <time>2014-04-20T11:32:44.000Z</time>
      </trkpt>
      <trkpt lat="48.73527" lon="1.79763">
        <ele>177.60000610352</ele>
        <time>2014-04-20T11:32:51.000Z</time>
      </trkpt>
      <trkpt lat="48.73527" lon="1.79748">
        <ele>184.19999694824</ele>
        <time>2014-04-20T11:32:58.000Z</time>
      </trkpt>
      <trkpt lat="48.73528" lon="1.79743">
        <ele>184.19999694824</ele>
        <time>2014-04-20T11:33:00.000Z</time>
      </trkpt>
      <trkpt lat="48.73525" lon="1.79729">
        <ele>186.60000610352</ele>
        <time>2014-04-20T11:33:07.000Z</time>
      </trkpt>
      <trkpt lat="48.73524" lon="1.79712">
        <ele>188</ele>
        <time>2014-04-20T11:33:15.000Z</time>
      </trkpt>
      <trkpt lat="48.73523" lon="1.79707">
        <ele>188</ele>
        <time>2014-04-20T11:33:17.000Z</time>
      </trkpt>
      <trkpt lat="48.7352" lon="1.79691">
        <ele>185.19999694824</ele>
        <time>2014-04-20T11:33:24.000Z</time>
      </trkpt>
      <trkpt lat="48.7352" lon="1.79679">
        <ele>184.19999694824</ele>
        <time>2014-04-20T11:33:30.000Z</time>
      </trkpt>
      <trkpt lat="48.73521" lon="1.79666">
        <ele>180</ele>
        <time>2014-04-20T11:33:37.000Z</time>
      </trkpt>
      <trkpt lat="48.73522" lon="1.79649">
        <ele>178.39999389648</ele>
        <time>2014-04-20T11:33:45.000Z</time>
      </trkpt>
      <trkpt lat="48.73522" lon="1.79626">
        <ele>176.60000610352</ele>
        <time>2014-04-20T11:33:56.000Z</time>
      </trkpt>
      <trkpt lat="48.7352" lon="1.79609">
        <ele>175.60000610352</ele>
        <time>2014-04-20T11:34:04.000Z</time>
      </trkpt>
      <trkpt lat="48.73518" lon="1.79594">
        <ele>174.60000610352</ele>
        <time>2014-04-20T11:34:11.000Z</time>
      </trkpt>
      <trkpt lat="48.73518" lon="1.79573">
        <ele>175.60000610352</ele>
        <time>2014-04-20T11:34:20.000Z</time>
      </trkpt>
      <trkpt lat="48.73517" lon="1.79558">
        <ele>176</ele>
        <time>2014-04-20T11:34:27.000Z</time>
      </trkpt>
      <trkpt lat="48.73515" lon="1.79541">
        <ele>175</ele>
        <time>2014-04-20T11:34:35.000Z</time>
      </trkpt>
      <trkpt lat="48.73513" lon="1.79522">
        <ele>176.60000610352</ele>
        <time>2014-04-20T11:34:43.000Z</time>
      </trkpt>
      <trkpt lat="48.73512" lon="1.79503">
        <ele>179.39999389648</ele>
        <time>2014-04-20T11:34:51.000Z</time>
      </trkpt>
      <trkpt lat="48.73512" lon="1.79492">
        <ele>178.39999389648</ele>
        <time>2014-04-20T11:34:57.000Z</time>
      </trkpt>
      <trkpt lat="48.73512" lon="1.79481">
        <ele>178</ele>
        <time>2014-04-20T11:35:02.000Z</time>
      </trkpt>
      <trkpt lat="48.73514" lon="1.79468">
        <ele>176</ele>
        <time>2014-04-20T11:35:09.000Z</time>
      </trkpt>
      <trkpt lat="48.73512" lon="1.79462">
        <ele>172.19999694824</ele>
        <time>2014-04-20T11:35:13.000Z</time>
      </trkpt>
      <trkpt lat="48.73514" lon="1.79445">
        <ele>167</ele>
        <time>2014-04-20T11:35:21.000Z</time>
      </trkpt>
      <trkpt lat="48.73517" lon="1.79425">
        <ele>165.39999389648</ele>
        <time>2014-04-20T11:35:30.000Z</time>
      </trkpt>
      <trkpt lat="48.73517" lon="1.79409">
        <ele>164.60000610352</ele>
        <time>2014-04-20T11:35:37.000Z</time>
      </trkpt>
      <trkpt lat="48.73512" lon="1.79392">
        <ele>168.39999389648</ele>
        <time>2014-04-20T11:35:44.000Z</time>
      </trkpt>
      <trkpt lat="48.73503" lon="1.79377">
        <ele>173.19999694824</ele>
        <time>2014-04-20T11:35:53.000Z</time>
      </trkpt>
      <trkpt lat="48.73489" lon="1.7937">
        <ele>175</ele>
        <time>2014-04-20T11:36:02.000Z</time>
      </trkpt>
      <trkpt lat="48.73478" lon="1.79363">
        <ele>174.19999694824</ele>
        <time>2014-04-20T11:36:10.000Z</time>
      </trkpt>
      <trkpt lat="48.7347" lon="1.79362">
        <ele>178</ele>
        <time>2014-04-20T11:36:16.000Z</time>
      </trkpt>
      <trkpt lat="48.7347" lon="1.79363">
        <ele>179</ele>
        <time>2014-04-20T11:36:18.000Z</time>
      </trkpt>
      <trkpt lat="48.73456" lon="1.79352">
        <ele>179</ele>
        <time>2014-04-20T11:36:36.000Z</time>
      </trkpt>
      <trkpt lat="48.73448" lon="1.79349">
        <ele>180.80000305176</ele>
        <time>2014-04-20T11:36:40.000Z</time>
      </trkpt>
      <trkpt lat="48.73439" lon="1.79338">
        <ele>179</ele>
        <time>2014-04-20T11:36:48.000Z</time>
      </trkpt>
      <trkpt lat="48.7343" lon="1.79328">
        <ele>177.60000610352</ele>
        <time>2014-04-20T11:36:55.000Z</time>
      </trkpt>
      <trkpt lat="48.73422" lon="1.79316">
        <ele>175.60000610352</ele>
        <time>2014-04-20T11:37:03.000Z</time>
      </trkpt>
      <trkpt lat="48.73414" lon="1.79306">
        <ele>172.19999694824</ele>
        <time>2014-04-20T11:37:11.000Z</time>
      </trkpt>
      <trkpt lat="48.73409" lon="1.79296">
        <ele>172.19999694824</ele>
        <time>2014-04-20T11:37:17.000Z</time>
      </trkpt>
      <trkpt lat="48.73403" lon="1.79286">
        <ele>172.19999694824</ele>
        <time>2014-04-20T11:37:23.000Z</time>
      </trkpt>
      <trkpt lat="48.734" lon="1.79276">
        <ele>169.39999389648</ele>
        <time>2014-04-20T11:37:29.000Z</time>
      </trkpt>
      <trkpt lat="48.73397" lon="1.79265">
        <ele>166.39999389648</ele>
        <time>2014-04-20T11:37:35.000Z</time>
      </trkpt>
      <trkpt lat="48.73395" lon="1.79259">
        <ele>167</ele>
        <time>2014-04-20T11:37:38.000Z</time>
      </trkpt>
      <trkpt lat="48.7339" lon="1.79251">
        <ele>168.39999389648</ele>
        <time>2014-04-20T11:37:42.000Z</time>
      </trkpt>
      <trkpt lat="48.73388" lon="1.79243">
        <ele>169.39999389648</ele>
        <time>2014-04-20T11:37:45.000Z</time>
      </trkpt>
      <trkpt lat="48.7338" lon="1.79231">
        <ele>174.19999694824</ele>
        <time>2014-04-20T11:37:53.000Z</time>
      </trkpt>
      <trkpt lat="48.73375" lon="1.79216">
        <ele>175</ele>
        <time>2014-04-20T11:37:59.000Z</time>
      </trkpt>
      <trkpt lat="48.7337" lon="1.79201">
        <ele>179</ele>
        <time>2014-04-20T11:38:05.000Z</time>
      </trkpt>
      <trkpt lat="48.73361" lon="1.79187">
        <ele>184.19999694824</ele>
        <time>2014-04-20T11:38:13.000Z</time>
      </trkpt>
      <trkpt lat="48.73356" lon="1.79175">
        <ele>184.80000305176</ele>
        <time>2014-04-20T11:38:20.000Z</time>
      </trkpt>
      <trkpt lat="48.7335" lon="1.79159">
        <ele>179</ele>
        <time>2014-04-20T11:38:28.000Z</time>
      </trkpt>
      <trkpt lat="48.73347" lon="1.79151">
        <ele>178.39999389648</ele>
        <time>2014-04-20T11:38:32.000Z</time>
      </trkpt>
      <trkpt lat="48.73347" lon="1.7915">
        <ele>177</ele>
        <time>2014-04-20T11:38:35.000Z</time>
      </trkpt>
      <trkpt lat="48.73346" lon="1.79142">
        <ele>172.19999694824</ele>
        <time>2014-04-20T11:38:46.000Z</time>
      </trkpt>
      <trkpt lat="48.73344" lon="1.79129">
        <ele>167.80000305176</ele>
        <time>2014-04-20T11:38:52.000Z</time>
      </trkpt>
      <trkpt lat="48.73344" lon="1.79127">
        <ele>167</ele>
        <time>2014-04-20T11:38:53.000Z</time>
      </trkpt>
      <trkpt lat="48.73338" lon="1.79108">
        <ele>166</ele>
        <time>2014-04-20T11:39:02.000Z</time>
      </trkpt>
      <trkpt lat="48.73334" lon="1.79092">
        <ele>168.80000305176</ele>
        <time>2014-04-20T11:39:09.000Z</time>
      </trkpt>
      <trkpt lat="48.73328" lon="1.79076">
        <ele>167</ele>
        <time>2014-04-20T11:39:17.000Z</time>
      </trkpt>
      <trkpt lat="48.73322" lon="1.79062">
        <ele>164</ele>
        <time>2014-04-20T11:39:25.000Z</time>
      </trkpt>
      <trkpt lat="48.73315" lon="1.79047">
        <ele>165</ele>
        <time>2014-04-20T11:39:33.000Z</time>
      </trkpt>
      <trkpt lat="48.73309" lon="1.79032">
        <ele>164</ele>
        <time>2014-04-20T11:39:40.000Z</time>
      </trkpt>
      <trkpt lat="48.73309" lon="1.79029">
        <ele>164</ele>
        <time>2014-04-20T11:39:41.000Z</time>
      </trkpt>
      <trkpt lat="48.73305" lon="1.79019">
        <ele>163</ele>
        <time>2014-04-20T11:39:46.000Z</time>
      </trkpt>
      <trkpt lat="48.73299" lon="1.79005">
        <ele>164.60000610352</ele>
        <time>2014-04-20T11:39:53.000Z</time>
      </trkpt>
      <trkpt lat="48.73289" lon="1.78992">
        <ele>169.39999389648</ele>
        <time>2014-04-20T11:40:02.000Z</time>
      </trkpt>
      <trkpt lat="48.73282" lon="1.78977">
        <ele>172.19999694824</ele>
        <time>2014-04-20T11:40:10.000Z</time>
      </trkpt>
      <trkpt lat="48.73281" lon="1.7897">
        <ele>176</ele>
        <time>2014-04-20T11:40:15.000Z</time>
      </trkpt>
      <trkpt lat="48.73281" lon="1.78969">
        <ele>175.60000610352</ele>
        <time>2014-04-20T11:40:17.000Z</time>
      </trkpt>
      <trkpt lat="48.73278" lon="1.78963">
        <ele>172.60000610352</ele>
        <time>2014-04-20T11:40:23.000Z</time>
      </trkpt>
      <trkpt lat="48.7327" lon="1.78949">
        <ele>174.19999694824</ele>
        <time>2014-04-20T11:40:31.000Z</time>
      </trkpt>
      <trkpt lat="48.73267" lon="1.78947">
        <ele>174.60000610352</ele>
        <time>2014-04-20T11:40:33.000Z</time>
      </trkpt>
      <trkpt lat="48.73262" lon="1.78935">
        <ele>174.19999694824</ele>
        <time>2014-04-20T11:40:40.000Z</time>
      </trkpt>
      <trkpt lat="48.73259" lon="1.78932">
        <ele>175.60000610352</ele>
        <time>2014-04-20T11:40:42.000Z</time>
      </trkpt>
      <trkpt lat="48.73253" lon="1.78916">
        <ele>173.19999694824</ele>
        <time>2014-04-20T11:40:50.000Z</time>
      </trkpt>
      <trkpt lat="48.73248" lon="1.7891">
        <ele>173.60000610352</ele>
        <time>2014-04-20T11:40:55.000Z</time>
      </trkpt>
      <trkpt lat="48.73244" lon="1.78907">
        <ele>175</ele>
        <time>2014-04-20T11:40:58.000Z</time>
      </trkpt>
      <trkpt lat="48.73235" lon="1.7889">
        <ele>175</ele>
        <time>2014-04-20T11:41:07.000Z</time>
      </trkpt>
      <trkpt lat="48.73235" lon="1.78888">
        <ele>174.60000610352</ele>
        <time>2014-04-20T11:41:08.000Z</time>
      </trkpt>
      <trkpt lat="48.73226" lon="1.78878">
        <ele>176.60000610352</ele>
        <time>2014-04-20T11:41:16.000Z</time>
      </trkpt>
      <trkpt lat="48.73219" lon="1.78868">
        <ele>178</ele>
        <time>2014-04-20T11:41:23.000Z</time>
      </trkpt>
      <trkpt lat="48.73216" lon="1.78858">
        <ele>175.60000610352</ele>
        <time>2014-04-20T11:41:28.000Z</time>
      </trkpt>
      <trkpt lat="48.73208" lon="1.78848">
        <ele>176.60000610352</ele>
        <time>2014-04-20T11:41:35.000Z</time>
      </trkpt>
      <trkpt lat="48.73199" lon="1.78844">
        <ele>181.39999389648</ele>
        <time>2014-04-20T11:41:42.000Z</time>
      </trkpt>
      <trkpt lat="48.73197" lon="1.78835">
        <ele>177.60000610352</ele>
        <time>2014-04-20T11:41:47.000Z</time>
      </trkpt>
      <trkpt lat="48.73194" lon="1.78828">
        <ele>180.39999389648</ele>
        <time>2014-04-20T11:41:53.000Z</time>
      </trkpt>
      <trkpt lat="48.73193" lon="1.78826">
        <ele>180.39999389648</ele>
        <time>2014-04-20T11:41:55.000Z</time>
      </trkpt>
      <trkpt lat="48.73189" lon="1.78823">
        <ele>179.39999389648</ele>
        <time>2014-04-20T11:41:58.000Z</time>
      </trkpt>
      <trkpt lat="48.73184" lon="1.78817">
        <ele>181.80000305176</ele>
        <time>2014-04-20T11:42:04.000Z</time>
      </trkpt>
      <trkpt lat="48.73181" lon="1.78813">
        <ele>180.39999389648</ele>
        <time>2014-04-20T11:42:07.000Z</time>
      </trkpt>
      <trkpt lat="48.73177" lon="1.7881">
        <ele>182.39999389648</ele>
        <time>2014-04-20T11:42:10.000Z</time>
      </trkpt>
      <trkpt lat="48.73175" lon="1.78792">
        <ele>182.39999389648</ele>
        <time>2014-04-20T11:42:17.000Z</time>
      </trkpt>
      <trkpt lat="48.73171" lon="1.78778">
        <ele>178</ele>
        <time>2014-04-20T11:42:24.000Z</time>
      </trkpt>
      <trkpt lat="48.73169" lon="1.78771">
        <ele>178.39999389648</ele>
        <time>2014-04-20T11:42:27.000Z</time>
      </trkpt>
      <trkpt lat="48.7317" lon="1.78759">
        <ele>174.19999694824</ele>
        <time>2014-04-20T11:42:31.000Z</time>
      </trkpt>
      <trkpt lat="48.73171" lon="1.78754">
        <ele>170.80000305176</ele>
        <time>2014-04-20T11:42:33.000Z</time>
      </trkpt>
      <trkpt lat="48.73171" lon="1.7874">
        <ele>163.60000610352</ele>
        <time>2014-04-20T11:42:40.000Z</time>
      </trkpt>
      <trkpt lat="48.73166" lon="1.78727">
        <ele>163.60000610352</ele>
        <time>2014-04-20T11:42:47.000Z</time>
      </trkpt>
      <trkpt lat="48.73165" lon="1.78723">
        <ele>163</ele>
        <time>2014-04-20T11:42:49.000Z</time>
      </trkpt>
      <trkpt lat="48.73162" lon="1.78714">
        <ele>162.60000610352</ele>
        <time>2014-04-20T11:42:55.000Z</time>
      </trkpt>
      <trkpt lat="48.73156" lon="1.78699">
        <ele>166</ele>
        <time>2014-04-20T11:43:02.000Z</time>
      </trkpt>
      <trkpt lat="48.73157" lon="1.78684">
        <ele>165</ele>
        <time>2014-04-20T11:43:09.000Z</time>
      </trkpt>
      <trkpt lat="48.73155" lon="1.78674">
        <ele>165.39999389648</ele>
        <time>2014-04-20T11:43:15.000Z</time>
      </trkpt>
      <trkpt lat="48.73153" lon="1.78672">
        <ele>167.39999389648</ele>
        <time>2014-04-20T11:43:17.000Z</time>
      </trkpt>
      <trkpt lat="48.73149" lon="1.78659">
        <ele>166</ele>
        <time>2014-04-20T11:43:23.000Z</time>
      </trkpt>
      <trkpt lat="48.73145" lon="1.78642">
        <ele>170.19999694824</ele>
        <time>2014-04-20T11:43:30.000Z</time>
      </trkpt>
      <trkpt lat="48.73144" lon="1.78635">
        <ele>171.19999694824</ele>
        <time>2014-04-20T11:43:33.000Z</time>
      </trkpt>
      <trkpt lat="48.7314" lon="1.78618">
        <ele>169.80000305176</ele>
        <time>2014-04-20T11:43:41.000Z</time>
      </trkpt>
      <trkpt lat="48.73136" lon="1.78606">
        <ele>162.60000610352</ele>
        <time>2014-04-20T11:43:49.000Z</time>
      </trkpt>
      <trkpt lat="48.73136" lon="1.78592">
        <ele>155.80000305176</ele>
        <time>2014-04-20T11:43:54.000Z</time>
      </trkpt>
      <trkpt lat="48.73134" lon="1.78581">
        <ele>153</ele>
        <time>2014-04-20T11:44:00.000Z</time>
      </trkpt>
      <trkpt lat="48.73132" lon="1.78575">
        <ele>153</ele>
        <time>2014-04-20T11:44:04.000Z</time>
      </trkpt>
      <trkpt lat="48.73129" lon="1.78559">
        <ele>150.19999694824</ele>
        <time>2014-04-20T11:44:13.000Z</time>
      </trkpt>
      <trkpt lat="48.73129" lon="1.78555">
        <ele>148.60000610352</ele>
        <time>2014-04-20T11:44:15.000Z</time>
      </trkpt>
      <trkpt lat="48.73127" lon="1.78539">
        <ele>147.60000610352</ele>
        <time>2014-04-20T11:44:23.000Z</time>
      </trkpt>
      <trkpt lat="48.73119" lon="1.78522">
        <ele>156.80000305176</ele>
        <time>2014-04-20T11:44:30.000Z</time>
      </trkpt>
      <trkpt lat="48.73113" lon="1.78506">
        <ele>166</ele>
        <time>2014-04-20T11:44:37.000Z</time>
      </trkpt>
      <trkpt lat="48.73111" lon="1.78503">
        <ele>165.39999389648</ele>
        <time>2014-04-20T11:44:40.000Z</time>
      </trkpt>
      <trkpt lat="48.73108" lon="1.78493">
        <ele>169.80000305176</ele>
        <time>2014-04-20T11:44:45.000Z</time>
      </trkpt>
      <trkpt lat="48.73104" lon="1.78478">
        <ele>169.39999389648</ele>
        <time>2014-04-20T11:44:52.000Z</time>
      </trkpt>
      <trkpt lat="48.73103" lon="1.78476">
        <ele>168.80000305176</ele>
        <time>2014-04-20T11:44:53.000Z</time>
      </trkpt>
      <trkpt lat="48.73102" lon="1.78465">
        <ele>166.39999389648</ele>
        <time>2014-04-20T11:44:59.000Z</time>
      </trkpt>
      <trkpt lat="48.73103" lon="1.78451">
        <ele>163</ele>
        <time>2014-04-20T11:45:06.000Z</time>
      </trkpt>
      <trkpt lat="48.73104" lon="1.78443">
        <ele>160.19999694824</ele>
        <time>2014-04-20T11:45:09.000Z</time>
      </trkpt>
      <trkpt lat="48.73102" lon="1.78425">
        <ele>157.39999389648</ele>
        <time>2014-04-20T11:45:17.000Z</time>
      </trkpt>
      <trkpt lat="48.73097" lon="1.78406">
        <ele>159.19999694824</ele>
        <time>2014-04-20T11:45:26.000Z</time>
      </trkpt>
      <trkpt lat="48.73093" lon="1.78382">
        <ele>160.60000610352</ele>
        <time>2014-04-20T11:45:36.000Z</time>
      </trkpt>
      <trkpt lat="48.73087" lon="1.78365">
        <ele>163.60000610352</ele>
        <time>2014-04-20T11:45:45.000Z</time>
      </trkpt>
      <trkpt lat="48.73083" lon="1.78361">
        <ele>166.39999389648</ele>
        <time>2014-04-20T11:45:48.000Z</time>
      </trkpt>
      <trkpt lat="48.73073" lon="1.78356">
        <ele>172.19999694824</ele>
        <time>2014-04-20T11:45:54.000Z</time>
      </trkpt>
      <trkpt lat="48.73064" lon="1.78347">
        <ele>174.60000610352</ele>
        <time>2014-04-20T11:46:01.000Z</time>
      </trkpt>
      <trkpt lat="48.73056" lon="1.7834">
        <ele>175</ele>
        <time>2014-04-20T11:46:05.000Z</time>
      </trkpt>
      <trkpt lat="48.7303" lon="1.78317">
        <ele>176.60000610352</ele>
        <time>2014-04-20T11:46:14.000Z</time>
      </trkpt>
      <trkpt lat="48.73005" lon="1.78294">
        <ele>177.60000610352</ele>
        <time>2014-04-20T11:46:22.000Z</time>
      </trkpt>
      <trkpt lat="48.72986" lon="1.78278">
        <ele>177</ele>
        <time>2014-04-20T11:46:28.000Z</time>
      </trkpt>
      <trkpt lat="48.72973" lon="1.78267">
        <ele>175.60000610352</ele>
        <time>2014-04-20T11:46:33.000Z</time>
      </trkpt>
      <trkpt lat="48.72952" lon="1.78247">
        <ele>177</ele>
        <time>2014-04-20T11:46:40.000Z</time>
      </trkpt>
      <trkpt lat="48.72937" lon="1.78235">
        <ele>176.60000610352</ele>
        <time>2014-04-20T11:46:45.000Z</time>
      </trkpt>
      <trkpt lat="48.72909" lon="1.78212">
        <ele>178</ele>
        <time>2014-04-20T11:46:54.000Z</time>
      </trkpt>
      <trkpt lat="48.72888" lon="1.78194">
        <ele>179</ele>
        <time>2014-04-20T11:47:01.000Z</time>
      </trkpt>
      <trkpt lat="48.72858" lon="1.78167">
        <ele>180.39999389648</ele>
        <time>2014-04-20T11:47:11.000Z</time>
      </trkpt>
      <trkpt lat="48.72838" lon="1.78145">
        <ele>180.39999389648</ele>
        <time>2014-04-20T11:47:18.000Z</time>
      </trkpt>
      <trkpt lat="48.72813" lon="1.78123">
        <ele>180</ele>
        <time>2014-04-20T11:47:26.000Z</time>
      </trkpt>
      <trkpt lat="48.72794" lon="1.78107">
        <ele>179.39999389648</ele>
        <time>2014-04-20T11:47:32.000Z</time>
      </trkpt>
      <trkpt lat="48.72774" lon="1.78091">
        <ele>178</ele>
        <time>2014-04-20T11:47:39.000Z</time>
      </trkpt>
      <trkpt lat="48.72753" lon="1.78072">
        <ele>178.39999389648</ele>
        <time>2014-04-20T11:47:46.000Z</time>
      </trkpt>
      <trkpt lat="48.72732" lon="1.78053">
        <ele>177.60000610352</ele>
        <time>2014-04-20T11:47:53.000Z</time>
      </trkpt>
      <trkpt lat="48.72714" lon="1.7803">
        <ele>177.60000610352</ele>
        <time>2014-04-20T11:48:00.000Z</time>
      </trkpt>
      <trkpt lat="48.72698" lon="1.78005">
        <ele>177</ele>
        <time>2014-04-20T11:48:07.000Z</time>
      </trkpt>
      <trkpt lat="48.72688" lon="1.77982">
        <ele>177.60000610352</ele>
        <time>2014-04-20T11:48:13.000Z</time>
      </trkpt>
      <trkpt lat="48.72678" lon="1.77968">
        <ele>177.60000610352</ele>
        <time>2014-04-20T11:48:17.000Z</time>
      </trkpt>
      <trkpt lat="48.72667" lon="1.7796">
        <ele>177.60000610352</ele>
        <time>2014-04-20T11:48:22.000Z</time>
      </trkpt>
      <trkpt lat="48.72664" lon="1.77959">
        <ele>177</ele>
        <time>2014-04-20T11:48:24.000Z</time>
      </trkpt>
      <trkpt lat="48.72659" lon="1.77957">
        <ele>176.60000610352</ele>
        <time>2014-04-20T11:48:27.000Z</time>
      </trkpt>
      <trkpt lat="48.72651" lon="1.77957">
        <ele>176</ele>
        <time>2014-04-20T11:48:32.000Z</time>
      </trkpt>
      <trkpt lat="48.72648" lon="1.77958">
        <ele>175.60000610352</ele>
        <time>2014-04-20T11:48:34.000Z</time>
      </trkpt>
      <trkpt lat="48.72642" lon="1.77958">
        <ele>175</ele>
        <time>2014-04-20T11:48:37.000Z</time>
      </trkpt>
      <trkpt lat="48.72638" lon="1.77959">
        <ele>173.60000610352</ele>
        <time>2014-04-20T11:48:41.000Z</time>
      </trkpt>
      <trkpt lat="48.72626" lon="1.77972">
        <ele>176</ele>
        <time>2014-04-20T11:48:49.000Z</time>
      </trkpt>
      <trkpt lat="48.7262" lon="1.7798">
        <ele>177</ele>
        <time>2014-04-20T11:48:54.000Z</time>
      </trkpt>
      <trkpt lat="48.72615" lon="1.77982">
        <ele>179</ele>
        <time>2014-04-20T11:48:59.000Z</time>
      </trkpt>
      <trkpt lat="48.72604" lon="1.77985">
        <ele>179.39999389648</ele>
        <time>2014-04-20T11:49:05.000Z</time>
      </trkpt>
      <trkpt lat="48.72592" lon="1.77988">
        <ele>174.60000610352</ele>
        <time>2014-04-20T11:49:14.000Z</time>
      </trkpt>
      <trkpt lat="48.72584" lon="1.77992">
        <ele>174.19999694824</ele>
        <time>2014-04-20T11:49:20.000Z</time>
      </trkpt>
      <trkpt lat="48.7258" lon="1.77992">
        <ele>174.60000610352</ele>
        <time>2014-04-20T11:49:25.000Z</time>
      </trkpt>
      <trkpt lat="48.7258" lon="1.77992">
        <ele>174.19999694824</ele>
        <time>2014-04-20T11:49:27.000Z</time>
      </trkpt>
      <trkpt lat="48.72577" lon="1.77993">
        <ele>174.60000610352</ele>
        <time>2014-04-20T11:49:30.000Z</time>
      </trkpt>
      <trkpt lat="48.72568" lon="1.77994">
        <ele>169.39999389648</ele>
        <time>2014-04-20T11:49:32.000Z</time>
      </trkpt>
      <trkpt lat="48.72556" lon="1.77995">
        <ele>166.39999389648</ele>
        <time>2014-04-20T11:49:38.000Z</time>
      </trkpt>
      <trkpt lat="48.72544" lon="1.7799">
        <ele>162.19999694824</ele>
        <time>2014-04-20T11:49:46.000Z</time>
      </trkpt>
      <trkpt lat="48.72536" lon="1.77986">
        <ele>160.60000610352</ele>
        <time>2014-04-20T11:49:51.000Z</time>
      </trkpt>
      <trkpt lat="48.72525" lon="1.77983">
        <ele>158.19999694824</ele>
        <time>2014-04-20T11:49:58.000Z</time>
      </trkpt>
      <trkpt lat="48.72518" lon="1.77979">
        <ele>157.39999389648</ele>
        <time>2014-04-20T11:50:03.000Z</time>
      </trkpt>
      <trkpt lat="48.72512" lon="1.77974">
        <ele>161.19999694824</ele>
        <time>2014-04-20T11:50:07.000Z</time>
      </trkpt>
      <trkpt lat="48.7251" lon="1.77973">
        <ele>163</ele>
        <time>2014-04-20T11:50:11.000Z</time>
      </trkpt>
      <trkpt lat="48.72497" lon="1.77962">
        <ele>162.19999694824</ele>
        <time>2014-04-20T11:50:31.000Z</time>
      </trkpt>
      <trkpt lat="48.7249" lon="1.77954">
        <ele>159.80000305176</ele>
        <time>2014-04-20T11:50:37.000Z</time>
      </trkpt>
      <trkpt lat="48.72488" lon="1.77952">
        <ele>162.19999694824</ele>
        <time>2014-04-20T11:50:38.000Z</time>
      </trkpt>
      <trkpt lat="48.72481" lon="1.77946">
        <ele>167</ele>
        <time>2014-04-20T11:50:44.000Z</time>
      </trkpt>
      <trkpt lat="48.72474" lon="1.77941">
        <ele>168.39999389648</ele>
        <time>2014-04-20T11:50:49.000Z</time>
      </trkpt>
      <trkpt lat="48.72466" lon="1.77938">
        <ele>166.39999389648</ele>
        <time>2014-04-20T11:50:54.000Z</time>
      </trkpt>
      <trkpt lat="48.72458" lon="1.77935">
        <ele>167</ele>
        <time>2014-04-20T11:51:00.000Z</time>
      </trkpt>
      <trkpt lat="48.72451" lon="1.77929">
        <ele>167.80000305176</ele>
        <time>2014-04-20T11:51:05.000Z</time>
      </trkpt>
      <trkpt lat="48.72443" lon="1.77924">
        <ele>168.80000305176</ele>
        <time>2014-04-20T11:51:10.000Z</time>
      </trkpt>
      <trkpt lat="48.72441" lon="1.77924">
        <ele>169.39999389648</ele>
        <time>2014-04-20T11:51:11.000Z</time>
      </trkpt>
      <trkpt lat="48.72435" lon="1.77914">
        <ele>164.60000610352</ele>
        <time>2014-04-20T11:51:17.000Z</time>
      </trkpt>
      <trkpt lat="48.72426" lon="1.77909">
        <ele>166.39999389648</ele>
        <time>2014-04-20T11:51:23.000Z</time>
      </trkpt>
      <trkpt lat="48.72412" lon="1.7791">
        <ele>169.39999389648</ele>
        <time>2014-04-20T11:51:31.000Z</time>
      </trkpt>
      <trkpt lat="48.72408" lon="1.7791">
        <ele>168.39999389648</ele>
        <time>2014-04-20T11:51:37.000Z</time>
      </trkpt>
      <trkpt lat="48.72401" lon="1.77908">
        <ele>167.39999389648</ele>
        <time>2014-04-20T11:51:42.000Z</time>
      </trkpt>
      <trkpt lat="48.724" lon="1.77909">
        <ele>167</ele>
        <time>2014-04-20T11:51:43.000Z</time>
      </trkpt>
      <trkpt lat="48.72389" lon="1.77911">
        <ele>162.60000610352</ele>
        <time>2014-04-20T11:51:51.000Z</time>
      </trkpt>
      <trkpt lat="48.72376" lon="1.77915">
        <ele>162.19999694824</ele>
        <time>2014-04-20T11:51:58.000Z</time>
      </trkpt>
      <trkpt lat="48.72363" lon="1.77913">
        <ele>161.19999694824</ele>
        <time>2014-04-20T11:52:06.000Z</time>
      </trkpt>
      <trkpt lat="48.72359" lon="1.77912">
        <ele>162.19999694824</ele>
        <time>2014-04-20T11:52:09.000Z</time>
      </trkpt>
      <trkpt lat="48.72355" lon="1.77905">
        <ele>159.80000305176</ele>
        <time>2014-04-20T11:52:13.000Z</time>
      </trkpt>
      <trkpt lat="48.72346" lon="1.77895">
        <ele>159.80000305176</ele>
        <time>2014-04-20T11:52:20.000Z</time>
      </trkpt>
      <trkpt lat="48.72338" lon="1.77879">
        <ele>160.19999694824</ele>
        <time>2014-04-20T11:52:28.000Z</time>
      </trkpt>
      <trkpt lat="48.72328" lon="1.7786">
        <ele>163.60000610352</ele>
        <time>2014-04-20T11:52:37.000Z</time>
      </trkpt>
      <trkpt lat="48.72323" lon="1.77849">
        <ele>167.39999389648</ele>
        <time>2014-04-20T11:52:43.000Z</time>
      </trkpt>
      <trkpt lat="48.72317" lon="1.77836">
        <ele>164.60000610352</ele>
        <time>2014-04-20T11:52:51.000Z</time>
      </trkpt>
      <trkpt lat="48.72316" lon="1.77834">
        <ele>164.60000610352</ele>
        <time>2014-04-20T11:52:52.000Z</time>
      </trkpt>
      <trkpt lat="48.72309" lon="1.77825">
        <ele>165.39999389648</ele>
        <time>2014-04-20T11:52:58.000Z</time>
      </trkpt>
      <trkpt lat="48.72306" lon="1.7782">
        <ele>163</ele>
        <time>2014-04-20T11:53:02.000Z</time>
      </trkpt>
      <trkpt lat="48.72297" lon="1.77811">
        <ele>156.80000305176</ele>
        <time>2014-04-20T11:53:11.000Z</time>
      </trkpt>
      <trkpt lat="48.72293" lon="1.77808">
        <ele>156.39999389648</ele>
        <time>2014-04-20T11:53:14.000Z</time>
      </trkpt>
      <trkpt lat="48.72286" lon="1.77807">
        <ele>156.80000305176</ele>
        <time>2014-04-20T11:53:19.000Z</time>
      </trkpt>
      <trkpt lat="48.72281" lon="1.77805">
        <ele>157.39999389648</ele>
        <time>2014-04-20T11:53:22.000Z</time>
      </trkpt>
      <trkpt lat="48.7227" lon="1.77801">
        <ele>159.19999694824</ele>
        <time>2014-04-20T11:53:29.000Z</time>
      </trkpt>
      <trkpt lat="48.72269" lon="1.778">
        <ele>159.19999694824</ele>
        <time>2014-04-20T11:53:30.000Z</time>
      </trkpt>
      <trkpt lat="48.72261" lon="1.77796">
        <ele>162.19999694824</ele>
        <time>2014-04-20T11:53:36.000Z</time>
      </trkpt>
      <trkpt lat="48.72255" lon="1.77785">
        <ele>159.80000305176</ele>
        <time>2014-04-20T11:53:42.000Z</time>
      </trkpt>
      <trkpt lat="48.72249" lon="1.77776">
        <ele>154.39999389648</ele>
        <time>2014-04-20T11:53:48.000Z</time>
      </trkpt>
      <trkpt lat="48.7224" lon="1.77766">
        <ele>156.80000305176</ele>
        <time>2014-04-20T11:53:54.000Z</time>
      </trkpt>
      <trkpt lat="48.72239" lon="1.77758">
        <ele>155.80000305176</ele>
        <time>2014-04-20T11:53:58.000Z</time>
      </trkpt>
      <trkpt lat="48.72237" lon="1.77748">
        <ele>155.80000305176</ele>
        <time>2014-04-20T11:54:02.000Z</time>
      </trkpt>
      <trkpt lat="48.7223" lon="1.77734">
        <ele>156.39999389648</ele>
        <time>2014-04-20T11:54:09.000Z</time>
      </trkpt>
      <trkpt lat="48.72229" lon="1.77732">
        <ele>156.39999389648</ele>
        <time>2014-04-20T11:54:10.000Z</time>
      </trkpt>
      <trkpt lat="48.72221" lon="1.77717">
        <ele>162.19999694824</ele>
        <time>2014-04-20T11:54:18.000Z</time>
      </trkpt>
      <trkpt lat="48.72217" lon="1.77705">
        <ele>161.60000610352</ele>
        <time>2014-04-20T11:54:24.000Z</time>
      </trkpt>
      <trkpt lat="48.72212" lon="1.77694">
        <ele>160.60000610352</ele>
        <time>2014-04-20T11:54:30.000Z</time>
      </trkpt>
      <trkpt lat="48.72207" lon="1.77688">
        <ele>160.19999694824</ele>
        <time>2014-04-20T11:54:36.000Z</time>
      </trkpt>
      <trkpt lat="48.72196" lon="1.77681">
        <ele>160.19999694824</ele>
        <time>2014-04-20T11:54:44.000Z</time>
      </trkpt>
      <trkpt lat="48.72191" lon="1.77673">
        <ele>158.80000305176</ele>
        <time>2014-04-20T11:54:49.000Z</time>
      </trkpt>
      <trkpt lat="48.72187" lon="1.77655">
        <ele>154.39999389648</ele>
        <time>2014-04-20T11:54:56.000Z</time>
      </trkpt>
      <trkpt lat="48.72179" lon="1.77637">
        <ele>153.39999389648</ele>
        <time>2014-04-20T11:55:06.000Z</time>
      </trkpt>
      <trkpt lat="48.72168" lon="1.77621">
        <ele>152.60000610352</ele>
        <time>2014-04-20T11:55:16.000Z</time>
      </trkpt>
      <trkpt lat="48.72161" lon="1.77612">
        <ele>150.19999694824</ele>
        <time>2014-04-20T11:55:23.000Z</time>
      </trkpt>
      <trkpt lat="48.72157" lon="1.77606">
        <ele>148.19999694824</ele>
        <time>2014-04-20T11:55:27.000Z</time>
      </trkpt>
      <trkpt lat="48.72147" lon="1.77597">
        <ele>154</ele>
        <time>2014-04-20T11:55:33.000Z</time>
      </trkpt>
      <trkpt lat="48.72141" lon="1.7759">
        <ele>154</ele>
        <time>2014-04-20T11:55:38.000Z</time>
      </trkpt>
      <trkpt lat="48.72132" lon="1.77581">
        <ele>152.60000610352</ele>
        <time>2014-04-20T11:55:46.000Z</time>
      </trkpt>
      <trkpt lat="48.72124" lon="1.77577">
        <ele>152</ele>
        <time>2014-04-20T11:55:52.000Z</time>
      </trkpt>
      <trkpt lat="48.72116" lon="1.77573">
        <ele>150.19999694824</ele>
        <time>2014-04-20T11:55:58.000Z</time>
      </trkpt>
      <trkpt lat="48.721" lon="1.77565">
        <ele>148.60000610352</ele>
        <time>2014-04-20T11:56:09.000Z</time>
      </trkpt>
      <trkpt lat="48.72089" lon="1.77558">
        <ele>149.19999694824</ele>
        <time>2014-04-20T11:56:17.000Z</time>
      </trkpt>
      <trkpt lat="48.72081" lon="1.77555">
        <ele>146.19999694824</ele>
        <time>2014-04-20T11:56:23.000Z</time>
      </trkpt>
      <trkpt lat="48.72074" lon="1.77552">
        <ele>143.39999389648</ele>
        <time>2014-04-20T11:56:28.000Z</time>
      </trkpt>
      <trkpt lat="48.72067" lon="1.77554">
        <ele>143.39999389648</ele>
        <time>2014-04-20T11:56:33.000Z</time>
      </trkpt>
      <trkpt lat="48.72053" lon="1.77554">
        <ele>144.80000305176</ele>
        <time>2014-04-20T11:56:42.000Z</time>
      </trkpt>
      <trkpt lat="48.72046" lon="1.77552">
        <ele>143.80000305176</ele>
        <time>2014-04-20T11:56:47.000Z</time>
      </trkpt>
      <trkpt lat="48.72035" lon="1.77548">
        <ele>143.39999389648</ele>
        <time>2014-04-20T11:56:55.000Z</time>
      </trkpt>
      <trkpt lat="48.7203" lon="1.77545">
        <ele>145.80000305176</ele>
        <time>2014-04-20T11:56:58.000Z</time>
      </trkpt>
      <trkpt lat="48.72019" lon="1.77538">
        <ele>141.39999389648</ele>
        <time>2014-04-20T11:57:07.000Z</time>
      </trkpt>
      <trkpt lat="48.72009" lon="1.7753">
        <ele>141.39999389648</ele>
        <time>2014-04-20T11:57:14.000Z</time>
      </trkpt>
      <trkpt lat="48.72003" lon="1.77521">
        <ele>138.60000610352</ele>
        <time>2014-04-20T11:57:20.000Z</time>
      </trkpt>
      <trkpt lat="48.72" lon="1.77516">
        <ele>136.60000610352</ele>
        <time>2014-04-20T11:57:23.000Z</time>
      </trkpt>
      <trkpt lat="48.71993" lon="1.77503">
        <ele>135.60000610352</ele>
        <time>2014-04-20T11:57:31.000Z</time>
      </trkpt>
      <trkpt lat="48.71986" lon="1.7749">
        <ele>135.19999694824</ele>
        <time>2014-04-20T11:57:38.000Z</time>
      </trkpt>
      <trkpt lat="48.71977" lon="1.77481">
        <ele>139</ele>
        <time>2014-04-20T11:57:44.000Z</time>
      </trkpt>
      <trkpt lat="48.71968" lon="1.7747">
        <ele>147.60000610352</ele>
        <time>2014-04-20T11:57:50.000Z</time>
      </trkpt>
      <trkpt lat="48.71961" lon="1.7746">
        <ele>148.19999694824</ele>
        <time>2014-04-20T11:57:57.000Z</time>
      </trkpt>
      <trkpt lat="48.7196" lon="1.77459">
        <ele>148.19999694824</ele>
        <time>2014-04-20T11:57:58.000Z</time>
      </trkpt>
      <trkpt lat="48.71952" lon="1.7745">
        <ele>149.19999694824</ele>
        <time>2014-04-20T11:58:05.000Z</time>
      </trkpt>
      <trkpt lat="48.71945" lon="1.77441">
        <ele>151.60000610352</ele>
        <time>2014-04-20T11:58:12.000Z</time>
      </trkpt>
      <trkpt lat="48.71936" lon="1.77435">
        <ele>152</ele>
        <time>2014-04-20T11:58:18.000Z</time>
      </trkpt>
      <trkpt lat="48.71929" lon="1.77429">
        <ele>151</ele>
        <time>2014-04-20T11:58:24.000Z</time>
      </trkpt>
      <trkpt lat="48.71926" lon="1.77424">
        <ele>152</ele>
        <time>2014-04-20T11:58:29.000Z</time>
      </trkpt>
      <trkpt lat="48.71918" lon="1.77417">
        <ele>150.19999694824</ele>
        <time>2014-04-20T11:58:35.000Z</time>
      </trkpt>
      <trkpt lat="48.71907" lon="1.77415">
        <ele>147.19999694824</ele>
        <time>2014-04-20T11:58:42.000Z</time>
      </trkpt>
      <trkpt lat="48.71898" lon="1.7741">
        <ele>145.80000305176</ele>
        <time>2014-04-20T11:58:48.000Z</time>
      </trkpt>
      <trkpt lat="48.71886" lon="1.77407">
        <ele>142.39999389648</ele>
        <time>2014-04-20T11:58:56.000Z</time>
      </trkpt>
      <trkpt lat="48.71879" lon="1.77408">
        <ele>142</ele>
        <time>2014-04-20T11:59:00.000Z</time>
      </trkpt>
      <trkpt lat="48.71874" lon="1.77406">
        <ele>137.60000610352</ele>
        <time>2014-04-20T11:59:03.000Z</time>
      </trkpt>
      <trkpt lat="48.71866" lon="1.77407">
        <ele>138.60000610352</ele>
        <time>2014-04-20T11:59:09.000Z</time>
      </trkpt>
      <trkpt lat="48.71865" lon="1.77407">
        <ele>138.60000610352</ele>
        <time>2014-04-20T11:59:10.000Z</time>
      </trkpt>
      <trkpt lat="48.71856" lon="1.7741">
        <ele>141.39999389648</ele>
        <time>2014-04-20T11:59:17.000Z</time>
      </trkpt>
      <trkpt lat="48.71855" lon="1.7741">
        <ele>142</ele>
        <time>2014-04-20T11:59:18.000Z</time>
      </trkpt>
      <trkpt lat="48.71852" lon="1.77411">
        <ele>142</ele>
        <time>2014-04-20T11:59:22.000Z</time>
      </trkpt>
      <trkpt lat="48.71848" lon="1.77415">
        <ele>147.60000610352</ele>
        <time>2014-04-20T11:59:28.000Z</time>
      </trkpt>
      <trkpt lat="48.71842" lon="1.77419">
        <ele>146.80000305176</ele>
        <time>2014-04-20T11:59:31.000Z</time>
      </trkpt>
      <trkpt lat="48.71831" lon="1.77425">
        <ele>148.19999694824</ele>
        <time>2014-04-20T11:59:37.000Z</time>
      </trkpt>
      <trkpt lat="48.71822" lon="1.77431">
        <ele>147.19999694824</ele>
        <time>2014-04-20T11:59:43.000Z</time>
      </trkpt>
      <trkpt lat="48.71812" lon="1.77436">
        <ele>151.60000610352</ele>
        <time>2014-04-20T11:59:49.000Z</time>
      </trkpt>
      <trkpt lat="48.71803" lon="1.77446">
        <ele>153.39999389648</ele>
        <time>2014-04-20T11:59:56.000Z</time>
      </trkpt>
      <trkpt lat="48.71801" lon="1.77453">
        <ele>153.39999389648</ele>
        <time>2014-04-20T12:00:03.000Z</time>
      </trkpt>
      <trkpt lat="48.71793" lon="1.77459">
        <ele>151.60000610352</ele>
        <time>2014-04-20T12:00:10.000Z</time>
      </trkpt>
      <trkpt lat="48.71787" lon="1.77464">
        <ele>150.19999694824</ele>
        <time>2014-04-20T12:00:14.000Z</time>
      </trkpt>
      <trkpt lat="48.71786" lon="1.7747">
        <ele>151</ele>
        <time>2014-04-20T12:00:19.000Z</time>
      </trkpt>
      <trkpt lat="48.71785" lon="1.77477">
        <ele>157.39999389648</ele>
        <time>2014-04-20T12:00:24.000Z</time>
      </trkpt>
      <trkpt lat="48.71783" lon="1.77483">
        <ele>160.60000610352</ele>
        <time>2014-04-20T12:00:28.000Z</time>
      </trkpt>
      <trkpt lat="48.71773" lon="1.77489">
        <ele>160.60000610352</ele>
        <time>2014-04-20T12:00:33.000Z</time>
      </trkpt>
      <trkpt lat="48.71758" lon="1.77494">
        <ele>158.19999694824</ele>
        <time>2014-04-20T12:00:39.000Z</time>
      </trkpt>
      <trkpt lat="48.71747" lon="1.77488">
        <ele>155.39999389648</ele>
        <time>2014-04-20T12:00:46.000Z</time>
      </trkpt>
      <trkpt lat="48.71736" lon="1.77483">
        <ele>153</ele>
        <time>2014-04-20T12:00:52.000Z</time>
      </trkpt>
      <trkpt lat="48.71733" lon="1.77482">
        <ele>153</ele>
        <time>2014-04-20T12:00:54.000Z</time>
      </trkpt>
      <trkpt lat="48.71725" lon="1.77483">
        <ele>152.60000610352</ele>
        <time>2014-04-20T12:01:00.000Z</time>
      </trkpt>
      <trkpt lat="48.71725" lon="1.77484">
        <ele>153</ele>
        <time>2014-04-20T12:01:01.000Z</time>
      </trkpt>
      <trkpt lat="48.71719" lon="1.77487">
        <ele>155.39999389648</ele>
        <time>2014-04-20T12:01:07.000Z</time>
      </trkpt>
      <trkpt lat="48.71713" lon="1.77488">
        <ele>154</ele>
        <time>2014-04-20T12:01:09.000Z</time>
      </trkpt>
      <trkpt lat="48.71711" lon="1.77487">
        <ele>154</ele>
        <time>2014-04-20T12:01:11.000Z</time>
      </trkpt>
      <trkpt lat="48.71699" lon="1.77486">
        <ele>154</ele>
        <time>2014-04-20T12:01:18.000Z</time>
      </trkpt>
      <trkpt lat="48.71698" lon="1.77486">
        <ele>155</ele>
        <time>2014-04-20T12:01:19.000Z</time>
      </trkpt>
      <trkpt lat="48.71693" lon="1.77489">
        <ele>156.39999389648</ele>
        <time>2014-04-20T12:01:23.000Z</time>
      </trkpt>
      <trkpt lat="48.71682" lon="1.77488">
        <ele>155.80000305176</ele>
        <time>2014-04-20T12:01:29.000Z</time>
      </trkpt>
      <trkpt lat="48.71672" lon="1.77484">
        <ele>154.39999389648</ele>
        <time>2014-04-20T12:01:35.000Z</time>
      </trkpt>
      <trkpt lat="48.71669" lon="1.77482">
        <ele>154</ele>
        <time>2014-04-20T12:01:37.000Z</time>
      </trkpt>
      <trkpt lat="48.7166" lon="1.77476">
        <ele>152</ele>
        <time>2014-04-20T12:01:42.000Z</time>
      </trkpt>
      <trkpt lat="48.71649" lon="1.77474">
        <ele>149.60000610352</ele>
        <time>2014-04-20T12:01:48.000Z</time>
      </trkpt>
      <trkpt lat="48.71638" lon="1.77475">
        <ele>150.19999694824</ele>
        <time>2014-04-20T12:01:53.000Z</time>
      </trkpt>
      <trkpt lat="48.71627" lon="1.77474">
        <ele>151.60000610352</ele>
        <time>2014-04-20T12:01:59.000Z</time>
      </trkpt>
      <trkpt lat="48.71623" lon="1.77473">
        <ele>152.60000610352</ele>
        <time>2014-04-20T12:02:03.000Z</time>
      </trkpt>
      <trkpt lat="48.71624" lon="1.77469">
        <ele>153.39999389648</ele>
        <time>2014-04-20T12:02:05.000Z</time>
      </trkpt>
      <trkpt lat="48.71618" lon="1.77462">
        <ele>150.60000610352</ele>
        <time>2014-04-20T12:02:10.000Z</time>
      </trkpt>
      <trkpt lat="48.71612" lon="1.7746">
        <ele>149.60000610352</ele>
        <time>2014-04-20T12:02:14.000Z</time>
      </trkpt>
      <trkpt lat="48.71607" lon="1.77458">
        <ele>150.19999694824</ele>
        <time>2014-04-20T12:02:17.000Z</time>
      </trkpt>
      <trkpt lat="48.71601" lon="1.77457">
        <ele>151.60000610352</ele>
        <time>2014-04-20T12:02:22.000Z</time>
      </trkpt>
      <trkpt lat="48.71595" lon="1.77456">
        <ele>152.60000610352</ele>
        <time>2014-04-20T12:02:26.000Z</time>
      </trkpt>
      <trkpt lat="48.71585" lon="1.77455">
        <ele>152.60000610352</ele>
        <time>2014-04-20T12:02:32.000Z</time>
      </trkpt>
      <trkpt lat="48.71579" lon="1.77453">
        <ele>151</ele>
        <time>2014-04-20T12:02:39.000Z</time>
      </trkpt>
      <trkpt lat="48.71571" lon="1.77452">
        <ele>151</ele>
        <time>2014-04-20T12:02:45.000Z</time>
      </trkpt>
      <trkpt lat="48.7157" lon="1.77453">
        <ele>150.60000610352</ele>
        <time>2014-04-20T12:02:46.000Z</time>
      </trkpt>
      <trkpt lat="48.7156" lon="1.77448">
        <ele>147.60000610352</ele>
        <time>2014-04-20T12:02:53.000Z</time>
      </trkpt>
      <trkpt lat="48.7155" lon="1.77446">
        <ele>143.80000305176</ele>
        <time>2014-04-20T12:03:01.000Z</time>
      </trkpt>
      <trkpt lat="48.71539" lon="1.77449">
        <ele>149.19999694824</ele>
        <time>2014-04-20T12:03:08.000Z</time>
      </trkpt>
      <trkpt lat="48.71534" lon="1.7745">
        <ele>152.60000610352</ele>
        <time>2014-04-20T12:03:11.000Z</time>
      </trkpt>
      <trkpt lat="48.71525" lon="1.77452">
        <ele>153</ele>
        <time>2014-04-20T12:03:19.000Z</time>
      </trkpt>
      <trkpt lat="48.71516" lon="1.77459">
        <ele>154.39999389648</ele>
        <time>2014-04-20T12:03:26.000Z</time>
      </trkpt>
      <trkpt lat="48.71508" lon="1.77465">
        <ele>154</ele>
        <time>2014-04-20T12:03:33.000Z</time>
      </trkpt>
      <trkpt lat="48.71499" lon="1.77474">
        <ele>156.80000305176</ele>
        <time>2014-04-20T12:03:40.000Z</time>
      </trkpt>
      <trkpt lat="48.71494" lon="1.77479">
        <ele>158.19999694824</ele>
        <time>2014-04-20T12:03:47.000Z</time>
      </trkpt>
      <trkpt lat="48.71486" lon="1.77482">
        <ele>157.39999389648</ele>
        <time>2014-04-20T12:03:57.000Z</time>
      </trkpt>
      <trkpt lat="48.71481" lon="1.77485">
        <ele>157.39999389648</ele>
        <time>2014-04-20T12:04:01.000Z</time>
      </trkpt>
      <trkpt lat="48.71475" lon="1.7749">
        <ele>153.39999389648</ele>
        <time>2014-04-20T12:04:08.000Z</time>
      </trkpt>
      <trkpt lat="48.71461" lon="1.77495">
        <ele>154</ele>
        <time>2014-04-20T12:04:16.000Z</time>
      </trkpt>
      <trkpt lat="48.71454" lon="1.77495">
        <ele>153.39999389648</ele>
        <time>2014-04-20T12:04:22.000Z</time>
      </trkpt>
      <trkpt lat="48.71447" lon="1.77495">
        <ele>153.39999389648</ele>
        <time>2014-04-20T12:04:28.000Z</time>
      </trkpt>
      <trkpt lat="48.71444" lon="1.77494">
        <ele>153.39999389648</ele>
        <time>2014-04-20T12:04:31.000Z</time>
      </trkpt>
      <trkpt lat="48.71442" lon="1.77494">
        <ele>153.39999389648</ele>
        <time>2014-04-20T12:04:35.000Z</time>
      </trkpt>
      <trkpt lat="48.71441" lon="1.77495">
        <ele>159.19999694824</ele>
        <time>2014-04-20T12:04:43.000Z</time>
      </trkpt>
      <trkpt lat="48.7144" lon="1.77494">
        <ele>159.80000305176</ele>
        <time>2014-04-20T12:04:44.000Z</time>
      </trkpt>
      <trkpt lat="48.71428" lon="1.77504">
        <ele>155.80000305176</ele>
        <time>2014-04-20T12:04:50.000Z</time>
      </trkpt>
      <trkpt lat="48.71425" lon="1.77508">
        <ele>154.39999389648</ele>
        <time>2014-04-20T12:04:52.000Z</time>
      </trkpt>
      <trkpt lat="48.71417" lon="1.77516">
        <ele>156.39999389648</ele>
        <time>2014-04-20T12:04:59.000Z</time>
      </trkpt>
      <trkpt lat="48.71414" lon="1.7752">
        <ele>157.39999389648</ele>
        <time>2014-04-20T12:05:01.000Z</time>
      </trkpt>
      <trkpt lat="48.71399" lon="1.77533">
        <ele>157.39999389648</ele>
        <time>2014-04-20T12:05:08.000Z</time>
      </trkpt>
      <trkpt lat="48.71397" lon="1.77536">
        <ele>158.19999694824</ele>
        <time>2014-04-20T12:05:09.000Z</time>
      </trkpt>
      <trkpt lat="48.71377" lon="1.77558">
        <ele>157.80000305176</ele>
        <time>2014-04-20T12:05:16.000Z</time>
      </trkpt>
      <trkpt lat="48.71366" lon="1.77573">
        <ele>157.39999389648</ele>
        <time>2014-04-20T12:05:21.000Z</time>
      </trkpt>
      <trkpt lat="48.71352" lon="1.77587">
        <ele>156.39999389648</ele>
        <time>2014-04-20T12:05:26.000Z</time>
      </trkpt>
      <trkpt lat="48.71337" lon="1.77601">
        <ele>154.39999389648</ele>
        <time>2014-04-20T12:05:33.000Z</time>
      </trkpt>
      <trkpt lat="48.71323" lon="1.77619">
        <ele>155</ele>
        <time>2014-04-20T12:05:38.000Z</time>
      </trkpt>
      <trkpt lat="48.71308" lon="1.77634">
        <ele>155</ele>
        <time>2014-04-20T12:05:43.000Z</time>
      </trkpt>
      <trkpt lat="48.71299" lon="1.77643">
        <ele>155.80000305176</ele>
        <time>2014-04-20T12:05:47.000Z</time>
      </trkpt>
      <trkpt lat="48.71287" lon="1.77647">
        <ele>156.39999389648</ele>
        <time>2014-04-20T12:05:52.000Z</time>
      </trkpt>
      <trkpt lat="48.71273" lon="1.77647">
        <ele>158.19999694824</ele>
        <time>2014-04-20T12:05:57.000Z</time>
      </trkpt>
      <trkpt lat="48.71262" lon="1.77647">
        <ele>156.39999389648</ele>
        <time>2014-04-20T12:06:01.000Z</time>
      </trkpt>
      <trkpt lat="48.71254" lon="1.77657">
        <ele>158.80000305176</ele>
        <time>2014-04-20T12:06:05.000Z</time>
      </trkpt>
      <trkpt lat="48.71247" lon="1.77667">
        <ele>159.80000305176</ele>
        <time>2014-04-20T12:06:09.000Z</time>
      </trkpt>
      <trkpt lat="48.71233" lon="1.77674">
        <ele>158.19999694824</ele>
        <time>2014-04-20T12:06:15.000Z</time>
      </trkpt>
      <trkpt lat="48.71215" lon="1.77679">
        <ele>160.19999694824</ele>
        <time>2014-04-20T12:06:21.000Z</time>
      </trkpt>
      <trkpt lat="48.71213" lon="1.7768">
        <ele>159.19999694824</ele>
        <time>2014-04-20T12:06:22.000Z</time>
      </trkpt>
      <trkpt lat="48.71199" lon="1.77681">
        <ele>158.80000305176</ele>
        <time>2014-04-20T12:06:27.000Z</time>
      </trkpt>
      <trkpt lat="48.71189" lon="1.77682">
        <ele>159.19999694824</ele>
        <time>2014-04-20T12:06:30.000Z</time>
      </trkpt>
      <trkpt lat="48.71171" lon="1.77684">
        <ele>159.19999694824</ele>
        <time>2014-04-20T12:06:36.000Z</time>
      </trkpt>
      <trkpt lat="48.71157" lon="1.77687">
        <ele>159.80000305176</ele>
        <time>2014-04-20T12:06:41.000Z</time>
      </trkpt>
      <trkpt lat="48.71136" lon="1.77693">
        <ele>165</ele>
        <time>2014-04-20T12:06:47.000Z</time>
      </trkpt>
      <trkpt lat="48.71126" lon="1.77694">
        <ele>164.60000610352</ele>
        <time>2014-04-20T12:06:50.000Z</time>
      </trkpt>
      <trkpt lat="48.71108" lon="1.77694">
        <ele>161.60000610352</ele>
        <time>2014-04-20T12:06:56.000Z</time>
      </trkpt>
      <trkpt lat="48.71088" lon="1.77698">
        <ele>160.60000610352</ele>
        <time>2014-04-20T12:07:02.000Z</time>
      </trkpt>
      <trkpt lat="48.71071" lon="1.77699">
        <ele>160.19999694824</ele>
        <time>2014-04-20T12:07:08.000Z</time>
      </trkpt>
      <trkpt lat="48.7106" lon="1.77686">
        <ele>160.60000610352</ele>
        <time>2014-04-20T12:07:13.000Z</time>
      </trkpt>
      <trkpt lat="48.7105" lon="1.77658">
        <ele>158.19999694824</ele>
        <time>2014-04-20T12:07:20.000Z</time>
      </trkpt>
      <trkpt lat="48.71039" lon="1.77636">
        <ele>165</ele>
        <time>2014-04-20T12:07:25.000Z</time>
      </trkpt>
      <trkpt lat="48.71028" lon="1.77607">
        <ele>164.60000610352</ele>
        <time>2014-04-20T12:07:32.000Z</time>
      </trkpt>
      <trkpt lat="48.71016" lon="1.77577">
        <ele>163.60000610352</ele>
        <time>2014-04-20T12:07:38.000Z</time>
      </trkpt>
      <trkpt lat="48.71002" lon="1.77541">
        <ele>169.39999389648</ele>
        <time>2014-04-20T12:07:43.000Z</time>
      </trkpt>
      <trkpt lat="48.70987" lon="1.77508">
        <ele>171.19999694824</ele>
        <time>2014-04-20T12:07:48.000Z</time>
      </trkpt>
      <trkpt lat="48.70981" lon="1.77496">
        <ele>171.80000305176</ele>
        <time>2014-04-20T12:07:50.000Z</time>
      </trkpt>
      <trkpt lat="48.70969" lon="1.77474">
        <ele>172.60000610352</ele>
        <time>2014-04-20T12:07:54.000Z</time>
      </trkpt>
      <trkpt lat="48.70958" lon="1.77448">
        <ele>173.19999694824</ele>
        <time>2014-04-20T12:07:58.000Z</time>
      </trkpt>
      <trkpt lat="48.70948" lon="1.77429">
        <ele>173.60000610352</ele>
        <time>2014-04-20T12:08:01.000Z</time>
      </trkpt>
      <trkpt lat="48.70935" lon="1.774">
        <ele>173.60000610352</ele>
        <time>2014-04-20T12:08:05.000Z</time>
      </trkpt>
      <trkpt lat="48.70918" lon="1.77371">
        <ele>172.60000610352</ele>
        <time>2014-04-20T12:08:10.000Z</time>
      </trkpt>
      <trkpt lat="48.70913" lon="1.7736">
        <ele>172.19999694824</ele>
        <time>2014-04-20T12:08:12.000Z</time>
      </trkpt>
      <trkpt lat="48.70907" lon="1.77339">
        <ele>169.39999389648</ele>
        <time>2014-04-20T12:08:16.000Z</time>
      </trkpt>
      <trkpt lat="48.70899" lon="1.7732">
        <ele>167.80000305176</ele>
        <time>2014-04-20T12:08:22.000Z</time>
      </trkpt>
      <trkpt lat="48.70894" lon="1.77306">
        <ele>171.19999694824</ele>
        <time>2014-04-20T12:08:28.000Z</time>
      </trkpt>
      <trkpt lat="48.70889" lon="1.7729">
        <ele>171.80000305176</ele>
        <time>2014-04-20T12:08:35.000Z</time>
      </trkpt>
      <trkpt lat="48.70884" lon="1.77276">
        <ele>171.19999694824</ele>
        <time>2014-04-20T12:08:42.000Z</time>
      </trkpt>
      <trkpt lat="48.70882" lon="1.77268">
        <ele>170.80000305176</ele>
        <time>2014-04-20T12:08:46.000Z</time>
      </trkpt>
      <trkpt lat="48.70878" lon="1.77256">
        <ele>168.80000305176</ele>
        <time>2014-04-20T12:08:53.000Z</time>
      </trkpt>
      <trkpt lat="48.7087" lon="1.77254">
        <ele>169.39999389648</ele>
        <time>2014-04-20T12:08:58.000Z</time>
      </trkpt>
      <trkpt lat="48.70869" lon="1.77254">
        <ele>169.39999389648</ele>
        <time>2014-04-20T12:08:59.000Z</time>
      </trkpt>
      <trkpt lat="48.70857" lon="1.77255">
        <ele>169.80000305176</ele>
        <time>2014-04-20T12:09:07.000Z</time>
      </trkpt>
      <trkpt lat="48.70847" lon="1.77257">
        <ele>170.19999694824</ele>
        <time>2014-04-20T12:09:14.000Z</time>
      </trkpt>
      <trkpt lat="48.70842" lon="1.77258">
        <ele>170.80000305176</ele>
        <time>2014-04-20T12:09:17.000Z</time>
      </trkpt>
      <trkpt lat="48.70836" lon="1.77258">
        <ele>170.80000305176</ele>
        <time>2014-04-20T12:09:22.000Z</time>
      </trkpt>
      <trkpt lat="48.70835" lon="1.77258">
        <ele>170.80000305176</ele>
        <time>2014-04-20T12:09:25.000Z</time>
      </trkpt>
      <trkpt lat="48.70828" lon="1.77257">
        <ele>171.19999694824</ele>
        <time>2014-04-20T12:09:38.000Z</time>
      </trkpt>
      <trkpt lat="48.70826" lon="1.77257">
        <ele>171.19999694824</ele>
        <time>2014-04-20T12:09:39.000Z</time>
      </trkpt>
      <trkpt lat="48.70817" lon="1.77257">
        <ele>171.19999694824</ele>
        <time>2014-04-20T12:09:45.000Z</time>
      </trkpt>
      <trkpt lat="48.70812" lon="1.77258">
        <ele>171.80000305176</ele>
        <time>2014-04-20T12:09:49.000Z</time>
      </trkpt>
      <trkpt lat="48.70804" lon="1.7726">
        <ele>172.19999694824</ele>
        <time>2014-04-20T12:09:54.000Z</time>
      </trkpt>
      <trkpt lat="48.70795" lon="1.77257">
        <ele>168.80000305176</ele>
        <time>2014-04-20T12:10:00.000Z</time>
      </trkpt>
      <trkpt lat="48.70788" lon="1.77258">
        <ele>168.39999389648</ele>
        <time>2014-04-20T12:10:05.000Z</time>
      </trkpt>
      <trkpt lat="48.70777" lon="1.7726">
        <ele>168.80000305176</ele>
        <time>2014-04-20T12:10:11.000Z</time>
      </trkpt>
      <trkpt lat="48.70775" lon="1.7726">
        <ele>169.39999389648</ele>
        <time>2014-04-20T12:10:12.000Z</time>
      </trkpt>
      <trkpt lat="48.70765" lon="1.77258">
        <ele>170.80000305176</ele>
        <time>2014-04-20T12:10:20.000Z</time>
      </trkpt>
      <trkpt lat="48.70755" lon="1.77259">
        <ele>170.80000305176</ele>
        <time>2014-04-20T12:10:26.000Z</time>
      </trkpt>
      <trkpt lat="48.70753" lon="1.77259">
        <ele>170.80000305176</ele>
        <time>2014-04-20T12:10:27.000Z</time>
      </trkpt>
      <trkpt lat="48.70747" lon="1.77259">
        <ele>169.80000305176</ele>
        <time>2014-04-20T12:10:31.000Z</time>
      </trkpt>
      <trkpt lat="48.70728" lon="1.77262">
        <ele>169.80000305176</ele>
        <time>2014-04-20T12:10:42.000Z</time>
      </trkpt>
      <trkpt lat="48.70721" lon="1.7726">
        <ele>169.80000305176</ele>
        <time>2014-04-20T12:10:48.000Z</time>
      </trkpt>
      <trkpt lat="48.70712" lon="1.77261">
        <ele>170.80000305176</ele>
        <time>2014-04-20T12:10:54.000Z</time>
      </trkpt>
      <trkpt lat="48.70706" lon="1.7726">
        <ele>171.19999694824</ele>
        <time>2014-04-20T12:11:00.000Z</time>
      </trkpt>
      <trkpt lat="48.70698" lon="1.7726">
        <ele>172.19999694824</ele>
        <time>2014-04-20T12:11:05.000Z</time>
      </trkpt>
      <trkpt lat="48.70691" lon="1.77259">
        <ele>169.80000305176</ele>
        <time>2014-04-20T12:11:09.000Z</time>
      </trkpt>
      <trkpt lat="48.70677" lon="1.7726">
        <ele>170.19999694824</ele>
        <time>2014-04-20T12:11:17.000Z</time>
      </trkpt>
      <trkpt lat="48.70674" lon="1.77259">
        <ele>170.19999694824</ele>
        <time>2014-04-20T12:11:19.000Z</time>
      </trkpt>
      <trkpt lat="48.70671" lon="1.77259">
        <ele>171.19999694824</ele>
        <time>2014-04-20T12:11:21.000Z</time>
      </trkpt>
      <trkpt lat="48.70663" lon="1.77257">
        <ele>170.80000305176</ele>
        <time>2014-04-20T12:11:27.000Z</time>
      </trkpt>
      <trkpt lat="48.70652" lon="1.77256">
        <ele>172.19999694824</ele>
        <time>2014-04-20T12:11:34.000Z</time>
      </trkpt>
      <trkpt lat="48.7065" lon="1.77256">
        <ele>171.19999694824</ele>
        <time>2014-04-20T12:11:36.000Z</time>
      </trkpt>
      <trkpt lat="48.70642" lon="1.77255">
        <ele>171.19999694824</ele>
        <time>2014-04-20T12:11:42.000Z</time>
      </trkpt>
      <trkpt lat="48.70639" lon="1.77254">
        <ele>171.80000305176</ele>
        <time>2014-04-20T12:11:44.000Z</time>
      </trkpt>
      <trkpt lat="48.70635" lon="1.77253">
        <ele>171.80000305176</ele>
        <time>2014-04-20T12:11:48.000Z</time>
      </trkpt>
      <trkpt lat="48.70624" lon="1.77252">
        <ele>171.19999694824</ele>
        <time>2014-04-20T12:11:56.000Z</time>
      </trkpt>
      <trkpt lat="48.70611" lon="1.77251">
        <ele>173.19999694824</ele>
        <time>2014-04-20T12:12:03.000Z</time>
      </trkpt>
      <trkpt lat="48.7061" lon="1.7725">
        <ele>173.19999694824</ele>
        <time>2014-04-20T12:12:04.000Z</time>
      </trkpt>
      <trkpt lat="48.70603" lon="1.7725">
        <ele>172.60000610352</ele>
        <time>2014-04-20T12:12:09.000Z</time>
      </trkpt>
      <trkpt lat="48.70588" lon="1.77252">
        <ele>172.19999694824</ele>
        <time>2014-04-20T12:12:17.000Z</time>
      </trkpt>
      <trkpt lat="48.70577" lon="1.77251">
        <ele>172.60000610352</ele>
        <time>2014-04-20T12:12:24.000Z</time>
      </trkpt>
      <trkpt lat="48.70573" lon="1.77251">
        <ele>173.19999694824</ele>
        <time>2014-04-20T12:12:27.000Z</time>
      </trkpt>
      <trkpt lat="48.70571" lon="1.7725">
        <ele>173.60000610352</ele>
        <time>2014-04-20T12:12:29.000Z</time>
      </trkpt>
      <trkpt lat="48.70562" lon="1.77246">
        <ele>172.60000610352</ele>
        <time>2014-04-20T12:12:36.000Z</time>
      </trkpt>
      <trkpt lat="48.70553" lon="1.77244">
        <ele>171.80000305176</ele>
        <time>2014-04-20T12:12:43.000Z</time>
      </trkpt>
      <trkpt lat="48.70543" lon="1.77241">
        <ele>171.19999694824</ele>
        <time>2014-04-20T12:12:50.000Z</time>
      </trkpt>
      <trkpt lat="48.70541" lon="1.77241">
        <ele>170.19999694824</ele>
        <time>2014-04-20T12:12:52.000Z</time>
      </trkpt>
      <trkpt lat="48.70533" lon="1.77241">
        <ele>170.80000305176</ele>
        <time>2014-04-20T12:12:58.000Z</time>
      </trkpt>
      <trkpt lat="48.70532" lon="1.77241">
        <ele>170.19999694824</ele>
        <time>2014-04-20T12:12:59.000Z</time>
      </trkpt>
      <trkpt lat="48.70522" lon="1.7724">
        <ele>171.19999694824</ele>
        <time>2014-04-20T12:13:06.000Z</time>
      </trkpt>
      <trkpt lat="48.70513" lon="1.77241">
        <ele>172.60000610352</ele>
        <time>2014-04-20T12:13:12.000Z</time>
      </trkpt>
      <trkpt lat="48.70502" lon="1.7724">
        <ele>172.60000610352</ele>
        <time>2014-04-20T12:13:19.000Z</time>
      </trkpt>
      <trkpt lat="48.70496" lon="1.77241">
        <ele>173.60000610352</ele>
        <time>2014-04-20T12:13:23.000Z</time>
      </trkpt>
      <trkpt lat="48.70493" lon="1.77241">
        <ele>174.60000610352</ele>
        <time>2014-04-20T12:13:26.000Z</time>
      </trkpt>
      <trkpt lat="48.70484" lon="1.77238">
        <ele>175</ele>
        <time>2014-04-20T12:13:33.000Z</time>
      </trkpt>
      <trkpt lat="48.70481" lon="1.77237">
        <ele>174.60000610352</ele>
        <time>2014-04-20T12:13:35.000Z</time>
      </trkpt>
      <trkpt lat="48.70475" lon="1.77236">
        <ele>173.60000610352</ele>
        <time>2014-04-20T12:13:39.000Z</time>
      </trkpt>
      <trkpt lat="48.70465" lon="1.77235">
        <ele>174.60000610352</ele>
        <time>2014-04-20T12:13:46.000Z</time>
      </trkpt>
      <trkpt lat="48.70457" lon="1.77235">
        <ele>175.60000610352</ele>
        <time>2014-04-20T12:13:51.000Z</time>
      </trkpt>
      <trkpt lat="48.70448" lon="1.77237">
        <ele>175.60000610352</ele>
        <time>2014-04-20T12:13:57.000Z</time>
      </trkpt>
      <trkpt lat="48.70444" lon="1.77241">
        <ele>175</ele>
        <time>2014-04-20T12:14:03.000Z</time>
      </trkpt>
      <trkpt lat="48.70441" lon="1.77241">
        <ele>175</ele>
        <time>2014-04-20T12:14:06.000Z</time>
      </trkpt>
      <trkpt lat="48.70428" lon="1.77248">
        <ele>174.19999694824</ele>
        <time>2014-04-20T12:14:15.000Z</time>
      </trkpt>
      <trkpt lat="48.7042" lon="1.77253">
        <ele>173.60000610352</ele>
        <time>2014-04-20T12:14:21.000Z</time>
      </trkpt>
      <trkpt lat="48.70409" lon="1.77261">
        <ele>172.60000610352</ele>
        <time>2014-04-20T12:14:29.000Z</time>
      </trkpt>
      <trkpt lat="48.70397" lon="1.77272">
        <ele>173.60000610352</ele>
        <time>2014-04-20T12:14:37.000Z</time>
      </trkpt>
      <trkpt lat="48.70391" lon="1.77277">
        <ele>174.60000610352</ele>
        <time>2014-04-20T12:14:40.000Z</time>
      </trkpt>
      <trkpt lat="48.70385" lon="1.77284">
        <ele>174.60000610352</ele>
        <time>2014-04-20T12:14:46.000Z</time>
      </trkpt>
      <trkpt lat="48.70382" lon="1.77287">
        <ele>174.19999694824</ele>
        <time>2014-04-20T12:14:49.000Z</time>
      </trkpt>
      <trkpt lat="48.70373" lon="1.7729">
        <ele>174.60000610352</ele>
        <time>2014-04-20T12:14:55.000Z</time>
      </trkpt>
      <trkpt lat="48.70369" lon="1.7728">
        <ele>174.19999694824</ele>
        <time>2014-04-20T12:15:00.000Z</time>
      </trkpt>
      <trkpt lat="48.70367" lon="1.77261">
        <ele>172.19999694824</ele>
        <time>2014-04-20T12:15:09.000Z</time>
      </trkpt>
      <trkpt lat="48.70365" lon="1.77241">
        <ele>172.19999694824</ele>
        <time>2014-04-20T12:15:18.000Z</time>
      </trkpt>
      <trkpt lat="48.70365" lon="1.7723">
        <ele>170.80000305176</ele>
        <time>2014-04-20T12:15:24.000Z</time>
      </trkpt>
      <trkpt lat="48.70361" lon="1.77205">
        <ele>171.19999694824</ele>
        <time>2014-04-20T12:15:36.000Z</time>
      </trkpt>
      <trkpt lat="48.70361" lon="1.77193">
        <ele>170.19999694824</ele>
        <time>2014-04-20T12:15:44.000Z</time>
      </trkpt>
      <trkpt lat="48.70359" lon="1.77178">
        <ele>168.80000305176</ele>
        <time>2014-04-20T12:15:52.000Z</time>
      </trkpt>
      <trkpt lat="48.70359" lon="1.77164">
        <ele>167.80000305176</ele>
        <time>2014-04-20T12:15:59.000Z</time>
      </trkpt>
      <trkpt lat="48.70359" lon="1.77162">
        <ele>167.80000305176</ele>
        <time>2014-04-20T12:16:00.000Z</time>
      </trkpt>
      <trkpt lat="48.70357" lon="1.77139">
        <ele>170.19999694824</ele>
        <time>2014-04-20T12:16:11.000Z</time>
      </trkpt>
      <trkpt lat="48.70356" lon="1.77129">
        <ele>170.80000305176</ele>
        <time>2014-04-20T12:16:17.000Z</time>
      </trkpt>
      <trkpt lat="48.70355" lon="1.77127">
        <ele>171.80000305176</ele>
        <time>2014-04-20T12:16:20.000Z</time>
      </trkpt>
      <trkpt lat="48.70353" lon="1.77118">
        <ele>175</ele>
        <time>2014-04-20T12:16:26.000Z</time>
      </trkpt>
      <trkpt lat="48.70351" lon="1.77099">
        <ele>173.19999694824</ele>
        <time>2014-04-20T12:16:33.000Z</time>
      </trkpt>
      <trkpt lat="48.70348" lon="1.77079">
        <ele>176.60000610352</ele>
        <time>2014-04-20T12:16:41.000Z</time>
      </trkpt>
      <trkpt lat="48.70345" lon="1.77065">
        <ele>176</ele>
        <time>2014-04-20T12:16:47.000Z</time>
      </trkpt>
      <trkpt lat="48.70343" lon="1.77051">
        <ele>175</ele>
        <time>2014-04-20T12:16:53.000Z</time>
      </trkpt>
      <trkpt lat="48.7034" lon="1.7703">
        <ele>177</ele>
        <time>2014-04-20T12:17:02.000Z</time>
      </trkpt>
      <trkpt lat="48.70341" lon="1.7702">
        <ele>176</ele>
        <time>2014-04-20T12:17:09.000Z</time>
      </trkpt>
      <trkpt lat="48.70338" lon="1.76999">
        <ele>179</ele>
        <time>2014-04-20T12:17:18.000Z</time>
      </trkpt>
      <trkpt lat="48.70338" lon="1.76978">
        <ele>175.60000610352</ele>
        <time>2014-04-20T12:17:29.000Z</time>
      </trkpt>
      <trkpt lat="48.70338" lon="1.76976">
        <ele>175.60000610352</ele>
        <time>2014-04-20T12:17:30.000Z</time>
      </trkpt>
      <trkpt lat="48.70338" lon="1.76964">
        <ele>175.60000610352</ele>
        <time>2014-04-20T12:17:37.000Z</time>
      </trkpt>
      <trkpt lat="48.70335" lon="1.76938">
        <ele>177.60000610352</ele>
        <time>2014-04-20T12:17:48.000Z</time>
      </trkpt>
      <trkpt lat="48.70335" lon="1.76921">
        <ele>177</ele>
        <time>2014-04-20T12:17:56.000Z</time>
      </trkpt>
      <trkpt lat="48.70334" lon="1.76918">
        <ele>177.60000610352</ele>
        <time>2014-04-20T12:17:57.000Z</time>
      </trkpt>
      <trkpt lat="48.70332" lon="1.76901">
        <ele>180</ele>
        <time>2014-04-20T12:18:05.000Z</time>
      </trkpt>
      <trkpt lat="48.70331" lon="1.76883">
        <ele>181.39999389648</ele>
        <time>2014-04-20T12:18:13.000Z</time>
      </trkpt>
      <trkpt lat="48.7033" lon="1.7687">
        <ele>180.39999389648</ele>
        <time>2014-04-20T12:18:19.000Z</time>
      </trkpt>
      <trkpt lat="48.7033" lon="1.76853">
        <ele>180.39999389648</ele>
        <time>2014-04-20T12:18:27.000Z</time>
      </trkpt>
      <trkpt lat="48.70331" lon="1.76839">
        <ele>178.39999389648</ele>
        <time>2014-04-20T12:18:34.000Z</time>
      </trkpt>
      <trkpt lat="48.70332" lon="1.76821">
        <ele>176.60000610352</ele>
        <time>2014-04-20T12:18:43.000Z</time>
      </trkpt>
      <trkpt lat="48.70332" lon="1.76808">
        <ele>174.19999694824</ele>
        <time>2014-04-20T12:18:50.000Z</time>
      </trkpt>
      <trkpt lat="48.70331" lon="1.76792">
        <ele>174.19999694824</ele>
        <time>2014-04-20T12:18:57.000Z</time>
      </trkpt>
      <trkpt lat="48.70332" lon="1.76787">
        <ele>174.19999694824</ele>
        <time>2014-04-20T12:18:59.000Z</time>
      </trkpt>
      <trkpt lat="48.7033" lon="1.76779">
        <ele>174.19999694824</ele>
        <time>2014-04-20T12:19:03.000Z</time>
      </trkpt>
      <trkpt lat="48.70327" lon="1.76748">
        <ele>180.80000305176</ele>
        <time>2014-04-20T12:19:16.000Z</time>
      </trkpt>
      <trkpt lat="48.70326" lon="1.76731">
        <ele>181.80000305176</ele>
        <time>2014-04-20T12:19:23.000Z</time>
      </trkpt>
      <trkpt lat="48.70326" lon="1.76724">
        <ele>180.39999389648</ele>
        <time>2014-04-20T12:19:27.000Z</time>
      </trkpt>
      <trkpt lat="48.70326" lon="1.76705">
        <ele>179</ele>
        <time>2014-04-20T12:19:36.000Z</time>
      </trkpt>
      <trkpt lat="48.70324" lon="1.7668">
        <ele>177.60000610352</ele>
        <time>2014-04-20T12:19:48.000Z</time>
      </trkpt>
      <trkpt lat="48.70323" lon="1.76659">
        <ele>179</ele>
        <time>2014-04-20T12:19:57.000Z</time>
      </trkpt>
      <trkpt lat="48.70325" lon="1.76648">
        <ele>177</ele>
        <time>2014-04-20T12:20:03.000Z</time>
      </trkpt>
      <trkpt lat="48.70331" lon="1.7664">
        <ele>173.60000610352</ele>
        <time>2014-04-20T12:20:10.000Z</time>
      </trkpt>
      <trkpt lat="48.70334" lon="1.76637">
        <ele>172.60000610352</ele>
        <time>2014-04-20T12:20:13.000Z</time>
      </trkpt>
      <trkpt lat="48.70341" lon="1.7663">
        <ele>171.19999694824</ele>
        <time>2014-04-20T12:20:20.000Z</time>
      </trkpt>
      <trkpt lat="48.70349" lon="1.76624">
        <ele>167.39999389648</ele>
        <time>2014-04-20T12:20:25.000Z</time>
      </trkpt>
      <trkpt lat="48.70356" lon="1.76618">
        <ele>168.80000305176</ele>
        <time>2014-04-20T12:20:31.000Z</time>
      </trkpt>
      <trkpt lat="48.7036" lon="1.76616">
        <ele>170.19999694824</ele>
        <time>2014-04-20T12:20:34.000Z</time>
      </trkpt>
      <trkpt lat="48.70365" lon="1.76616">
        <ele>171.19999694824</ele>
        <time>2014-04-20T12:20:38.000Z</time>
      </trkpt>
      <trkpt lat="48.70377" lon="1.76612">
        <ele>174.60000610352</ele>
        <time>2014-04-20T12:20:46.000Z</time>
      </trkpt>
      <trkpt lat="48.70384" lon="1.76608">
        <ele>175.60000610352</ele>
        <time>2014-04-20T12:20:52.000Z</time>
      </trkpt>
      <trkpt lat="48.70392" lon="1.76604">
        <ele>176</ele>
        <time>2014-04-20T12:20:58.000Z</time>
      </trkpt>
      <trkpt lat="48.70401" lon="1.76601">
        <ele>177.60000610352</ele>
        <time>2014-04-20T12:21:04.000Z</time>
      </trkpt>
      <trkpt lat="48.7041" lon="1.76593">
        <ele>176.60000610352</ele>
        <time>2014-04-20T12:21:11.000Z</time>
      </trkpt>
      <trkpt lat="48.70415" lon="1.7659">
        <ele>175.60000610352</ele>
        <time>2014-04-20T12:21:15.000Z</time>
      </trkpt>
      <trkpt lat="48.70422" lon="1.76586">
        <ele>176</ele>
        <time>2014-04-20T12:21:22.000Z</time>
      </trkpt>
      <trkpt lat="48.70427" lon="1.76587">
        <ele>175.60000610352</ele>
        <time>2014-04-20T12:21:28.000Z</time>
      </trkpt>
      <trkpt lat="48.70428" lon="1.76587">
        <ele>175.60000610352</ele>
        <time>2014-04-20T12:21:29.000Z</time>
      </trkpt>
      <trkpt lat="48.70437" lon="1.76576">
        <ele>176</ele>
        <time>2014-04-20T12:21:36.000Z</time>
      </trkpt>
      <trkpt lat="48.70439" lon="1.76572">
        <ele>175.60000610352</ele>
        <time>2014-04-20T12:21:39.000Z</time>
      </trkpt>
      <trkpt lat="48.70443" lon="1.7656">
        <ele>173.19999694824</ele>
        <time>2014-04-20T12:21:46.000Z</time>
      </trkpt>
      <trkpt lat="48.70447" lon="1.76544">
        <ele>172.19999694824</ele>
        <time>2014-04-20T12:21:53.000Z</time>
      </trkpt>
      <trkpt lat="48.70446" lon="1.76534">
        <ele>171.80000305176</ele>
        <time>2014-04-20T12:21:57.000Z</time>
      </trkpt>
      <trkpt lat="48.70447" lon="1.76518">
        <ele>172.60000610352</ele>
        <time>2014-04-20T12:22:03.000Z</time>
      </trkpt>
      <trkpt lat="48.7045" lon="1.76504">
        <ele>168.80000305176</ele>
        <time>2014-04-20T12:22:10.000Z</time>
      </trkpt>
      <trkpt lat="48.70454" lon="1.76496">
        <ele>168.80000305176</ele>
        <time>2014-04-20T12:22:14.000Z</time>
      </trkpt>
      <trkpt lat="48.70455" lon="1.76489">
        <ele>168.80000305176</ele>
        <time>2014-04-20T12:22:18.000Z</time>
      </trkpt>
      <trkpt lat="48.70457" lon="1.76478">
        <ele>166.39999389648</ele>
        <time>2014-04-20T12:22:24.000Z</time>
      </trkpt>
      <trkpt lat="48.70463" lon="1.76465">
        <ele>160.60000610352</ele>
        <time>2014-04-20T12:22:32.000Z</time>
      </trkpt>
      <trkpt lat="48.70465" lon="1.76456">
        <ele>158.19999694824</ele>
        <time>2014-04-20T12:22:37.000Z</time>
      </trkpt>
      <trkpt lat="48.70468" lon="1.76443">
        <ele>156.39999389648</ele>
        <time>2014-04-20T12:22:43.000Z</time>
      </trkpt>
      <trkpt lat="48.70466" lon="1.76425">
        <ele>157.39999389648</ele>
        <time>2014-04-20T12:22:51.000Z</time>
      </trkpt>
      <trkpt lat="48.70462" lon="1.76407">
        <ele>159.80000305176</ele>
        <time>2014-04-20T12:22:58.000Z</time>
      </trkpt>
      <trkpt lat="48.70461" lon="1.76396">
        <ele>161.60000610352</ele>
        <time>2014-04-20T12:23:02.000Z</time>
      </trkpt>
      <trkpt lat="48.70456" lon="1.76378">
        <ele>162.60000610352</ele>
        <time>2014-04-20T12:23:11.000Z</time>
      </trkpt>
      <trkpt lat="48.70453" lon="1.76368">
        <ele>163.60000610352</ele>
        <time>2014-04-20T12:23:16.000Z</time>
      </trkpt>
      <trkpt lat="48.70453" lon="1.76366">
        <ele>163.60000610352</ele>
        <time>2014-04-20T12:23:17.000Z</time>
      </trkpt>
      <trkpt lat="48.70451" lon="1.76352">
        <ele>160.60000610352</ele>
        <time>2014-04-20T12:23:24.000Z</time>
      </trkpt>
      <trkpt lat="48.7045" lon="1.76336">
        <ele>157.80000305176</ele>
        <time>2014-04-20T12:23:32.000Z</time>
      </trkpt>
      <trkpt lat="48.70448" lon="1.7632">
        <ele>159.80000305176</ele>
        <time>2014-04-20T12:23:39.000Z</time>
      </trkpt>
      <trkpt lat="48.70448" lon="1.76318">
        <ele>160.19999694824</ele>
        <time>2014-04-20T12:23:40.000Z</time>
      </trkpt>
      <trkpt lat="48.70447" lon="1.76314">
        <ele>161.19999694824</ele>
        <time>2014-04-20T12:23:42.000Z</time>
      </trkpt>
      <trkpt lat="48.70445" lon="1.76299">
        <ele>164</ele>
        <time>2014-04-20T12:23:48.000Z</time>
      </trkpt>
      <trkpt lat="48.70447" lon="1.76283">
        <ele>165.39999389648</ele>
        <time>2014-04-20T12:23:56.000Z</time>
      </trkpt>
      <trkpt lat="48.70449" lon="1.76269">
        <ele>166</ele>
        <time>2014-04-20T12:24:03.000Z</time>
      </trkpt>
      <trkpt lat="48.70455" lon="1.76257">
        <ele>165.39999389648</ele>
        <time>2014-04-20T12:24:10.000Z</time>
      </trkpt>
      <trkpt lat="48.70456" lon="1.76253">
        <ele>166</ele>
        <time>2014-04-20T12:24:12.000Z</time>
      </trkpt>
      <trkpt lat="48.70457" lon="1.76237">
        <ele>168.80000305176</ele>
        <time>2014-04-20T12:24:19.000Z</time>
      </trkpt>
      <trkpt lat="48.70457" lon="1.76225">
        <ele>169.39999389648</ele>
        <time>2014-04-20T12:24:24.000Z</time>
      </trkpt>
      <trkpt lat="48.70457" lon="1.76222">
        <ele>169.80000305176</ele>
        <time>2014-04-20T12:24:25.000Z</time>
      </trkpt>
      <trkpt lat="48.70457" lon="1.7621">
        <ele>171.19999694824</ele>
        <time>2014-04-20T12:24:30.000Z</time>
      </trkpt>
      <trkpt lat="48.70457" lon="1.76194">
        <ele>174.19999694824</ele>
        <time>2014-04-20T12:24:36.000Z</time>
      </trkpt>
      <trkpt lat="48.70455" lon="1.7619">
        <ele>173.60000610352</ele>
        <time>2014-04-20T12:24:38.000Z</time>
      </trkpt>
      <trkpt lat="48.70453" lon="1.76175">
        <ele>172.19999694824</ele>
        <time>2014-04-20T12:24:45.000Z</time>
      </trkpt>
      <trkpt lat="48.70451" lon="1.76165">
        <ele>169.39999389648</ele>
        <time>2014-04-20T12:24:51.000Z</time>
      </trkpt>
      <trkpt lat="48.70451" lon="1.76159">
        <ele>168.39999389648</ele>
        <time>2014-04-20T12:24:54.000Z</time>
      </trkpt>
      <trkpt lat="48.70452" lon="1.76149">
        <ele>169.80000305176</ele>
        <time>2014-04-20T12:24:58.000Z</time>
      </trkpt>
      <trkpt lat="48.70455" lon="1.76135">
        <ele>167.39999389648</ele>
        <time>2014-04-20T12:25:06.000Z</time>
      </trkpt>
      <trkpt lat="48.70457" lon="1.76125">
        <ele>162.19999694824</ele>
        <time>2014-04-20T12:25:12.000Z</time>
      </trkpt>
      <trkpt lat="48.70461" lon="1.76117">
        <ele>161.19999694824</ele>
        <time>2014-04-20T12:25:16.000Z</time>
      </trkpt>
      <trkpt lat="48.70466" lon="1.76106">
        <ele>161.60000610352</ele>
        <time>2014-04-20T12:25:23.000Z</time>
      </trkpt>
      <trkpt lat="48.70468" lon="1.7609">
        <ele>166</ele>
        <time>2014-04-20T12:25:30.000Z</time>
      </trkpt>
      <trkpt lat="48.70471" lon="1.76077">
        <ele>168.39999389648</ele>
        <time>2014-04-20T12:25:37.000Z</time>
      </trkpt>
      <trkpt lat="48.70473" lon="1.76061">
        <ele>168.80000305176</ele>
        <time>2014-04-20T12:25:44.000Z</time>
      </trkpt>
      <trkpt lat="48.70477" lon="1.7605">
        <ele>165</ele>
        <time>2014-04-20T12:25:51.000Z</time>
      </trkpt>
      <trkpt lat="48.70479" lon="1.76038">
        <ele>165</ele>
        <time>2014-04-20T12:25:58.000Z</time>
      </trkpt>
      <trkpt lat="48.70483" lon="1.76024">
        <ele>161.19999694824</ele>
        <time>2014-04-20T12:26:05.000Z</time>
      </trkpt>
      <trkpt lat="48.70485" lon="1.76013">
        <ele>161.19999694824</ele>
        <time>2014-04-20T12:26:11.000Z</time>
      </trkpt>
      <trkpt lat="48.7049" lon="1.76003">
        <ele>160.19999694824</ele>
        <time>2014-04-20T12:26:17.000Z</time>
      </trkpt>
      <trkpt lat="48.70495" lon="1.75992">
        <ele>159.19999694824</ele>
        <time>2014-04-20T12:26:24.000Z</time>
      </trkpt>
      <trkpt lat="48.70502" lon="1.75978">
        <ele>158.19999694824</ele>
        <time>2014-04-20T12:26:32.000Z</time>
      </trkpt>
      <trkpt lat="48.70507" lon="1.75968">
        <ele>159.19999694824</ele>
        <time>2014-04-20T12:26:38.000Z</time>
      </trkpt>
      <trkpt lat="48.70507" lon="1.75965">
        <ele>159.19999694824</ele>
        <time>2014-04-20T12:26:41.000Z</time>
      </trkpt>
      <trkpt lat="48.70511" lon="1.75956">
        <ele>162.60000610352</ele>
        <time>2014-04-20T12:26:48.000Z</time>
      </trkpt>
      <trkpt lat="48.70514" lon="1.7595">
        <ele>165.39999389648</ele>
        <time>2014-04-20T12:26:52.000Z</time>
      </trkpt>
      <trkpt lat="48.70517" lon="1.75944">
        <ele>166.39999389648</ele>
        <time>2014-04-20T12:26:56.000Z</time>
      </trkpt>
      <trkpt lat="48.70525" lon="1.75935">
        <ele>168.39999389648</ele>
        <time>2014-04-20T12:27:04.000Z</time>
      </trkpt>
      <trkpt lat="48.70527" lon="1.75933">
        <ele>168.80000305176</ele>
        <time>2014-04-20T12:27:06.000Z</time>
      </trkpt>
      <trkpt lat="48.70534" lon="1.75922">
        <ele>167</ele>
        <time>2014-04-20T12:27:14.000Z</time>
      </trkpt>
      <trkpt lat="48.70542" lon="1.75912">
        <ele>165.39999389648</ele>
        <time>2014-04-20T12:27:21.000Z</time>
      </trkpt>
      <trkpt lat="48.7055" lon="1.75896">
        <ele>162.60000610352</ele>
        <time>2014-04-20T12:27:30.000Z</time>
      </trkpt>
      <trkpt lat="48.70554" lon="1.75882">
        <ele>161.60000610352</ele>
        <time>2014-04-20T12:27:37.000Z</time>
      </trkpt>
      <trkpt lat="48.70559" lon="1.75867">
        <ele>161.60000610352</ele>
        <time>2014-04-20T12:27:44.000Z</time>
      </trkpt>
      <trkpt lat="48.7056" lon="1.75865">
        <ele>161.60000610352</ele>
        <time>2014-04-20T12:27:45.000Z</time>
      </trkpt>
      <trkpt lat="48.70566" lon="1.75854">
        <ele>161.60000610352</ele>
        <time>2014-04-20T12:27:52.000Z</time>
      </trkpt>
      <trkpt lat="48.70573" lon="1.75841">
        <ele>160.19999694824</ele>
        <time>2014-04-20T12:27:59.000Z</time>
      </trkpt>
      <trkpt lat="48.70575" lon="1.75837">
        <ele>160.19999694824</ele>
        <time>2014-04-20T12:28:02.000Z</time>
      </trkpt>
      <trkpt lat="48.70577" lon="1.75821">
        <ele>163.60000610352</ele>
        <time>2014-04-20T12:28:09.000Z</time>
      </trkpt>
      <trkpt lat="48.70582" lon="1.75805">
        <ele>167.39999389648</ele>
        <time>2014-04-20T12:28:17.000Z</time>
      </trkpt>
      <trkpt lat="48.70583" lon="1.75804">
        <ele>167.80000305176</ele>
        <time>2014-04-20T12:28:18.000Z</time>
      </trkpt>
      <trkpt lat="48.70583" lon="1.75802">
        <ele>168.80000305176</ele>
        <time>2014-04-20T12:28:21.000Z</time>
      </trkpt>
      <trkpt lat="48.70586" lon="1.75796">
        <ele>168.80000305176</ele>
        <time>2014-04-20T12:28:29.000Z</time>
      </trkpt>
      <trkpt lat="48.70596" lon="1.75777">
        <ele>170.19999694824</ele>
        <time>2014-04-20T12:28:39.000Z</time>
      </trkpt>
      <trkpt lat="48.70601" lon="1.7577">
        <ele>169.39999389648</ele>
        <time>2014-04-20T12:28:45.000Z</time>
      </trkpt>
      <trkpt lat="48.70608" lon="1.75759">
        <ele>168.39999389648</ele>
        <time>2014-04-20T12:28:53.000Z</time>
      </trkpt>
      <trkpt lat="48.70613" lon="1.75747">
        <ele>167.80000305176</ele>
        <time>2014-04-20T12:29:00.000Z</time>
      </trkpt>
      <trkpt lat="48.70618" lon="1.75736">
        <ele>167</ele>
        <time>2014-04-20T12:29:07.000Z</time>
      </trkpt>
      <trkpt lat="48.70621" lon="1.75728">
        <ele>169.39999389648</ele>
        <time>2014-04-20T12:29:11.000Z</time>
      </trkpt>
      <trkpt lat="48.70623" lon="1.75725">
        <ele>169.80000305176</ele>
        <time>2014-04-20T12:29:13.000Z</time>
      </trkpt>
      <trkpt lat="48.70624" lon="1.75715">
        <ele>169.80000305176</ele>
        <time>2014-04-20T12:29:18.000Z</time>
      </trkpt>
      <trkpt lat="48.70626" lon="1.75712">
        <ele>169.39999389648</ele>
        <time>2014-04-20T12:29:21.000Z</time>
      </trkpt>
      <trkpt lat="48.70626" lon="1.75708">
        <ele>169.39999389648</ele>
        <time>2014-04-20T12:29:28.000Z</time>
      </trkpt>
      <trkpt lat="48.70626" lon="1.75708">
        <ele>167.80000305176</ele>
        <time>2014-04-20T12:29:30.000Z</time>
      </trkpt>
      <trkpt lat="48.70639" lon="1.75637">
        <ele>167.39999389648</ele>
        <time>2014-04-20T12:31:54.000Z</time>
      </trkpt>
      <trkpt lat="48.70643" lon="1.75626">
        <ele>168.39999389648</ele>
        <time>2014-04-20T12:31:59.000Z</time>
      </trkpt>
      <trkpt lat="48.70648" lon="1.75612">
        <ele>167.80000305176</ele>
        <time>2014-04-20T12:32:07.000Z</time>
      </trkpt>
      <trkpt lat="48.70652" lon="1.75601">
        <ele>169.80000305176</ele>
        <time>2014-04-20T12:32:13.000Z</time>
      </trkpt>
      <trkpt lat="48.70652" lon="1.756">
        <ele>169.39999389648</ele>
        <time>2014-04-20T12:32:14.000Z</time>
      </trkpt>
      <trkpt lat="48.70655" lon="1.75593">
        <ele>168.80000305176</ele>
        <time>2014-04-20T12:32:20.000Z</time>
      </trkpt>
      <trkpt lat="48.70661" lon="1.75582">
        <ele>167</ele>
        <time>2014-04-20T12:32:29.000Z</time>
      </trkpt>
      <trkpt lat="48.70668" lon="1.75571">
        <ele>166</ele>
        <time>2014-04-20T12:32:37.000Z</time>
      </trkpt>
      <trkpt lat="48.70671" lon="1.75564">
        <ele>165</ele>
        <time>2014-04-20T12:32:42.000Z</time>
      </trkpt>
      <trkpt lat="48.70675" lon="1.75553">
        <ele>167</ele>
        <time>2014-04-20T12:32:48.000Z</time>
      </trkpt>
      <trkpt lat="48.70677" lon="1.75551">
        <ele>167.39999389648</ele>
        <time>2014-04-20T12:32:51.000Z</time>
      </trkpt>
      <trkpt lat="48.70679" lon="1.75546">
        <ele>167.80000305176</ele>
        <time>2014-04-20T12:32:56.000Z</time>
      </trkpt>
      <trkpt lat="48.7068" lon="1.75542">
        <ele>167.39999389648</ele>
        <time>2014-04-20T12:32:58.000Z</time>
      </trkpt>
      <trkpt lat="48.70684" lon="1.75531">
        <ele>167.80000305176</ele>
        <time>2014-04-20T12:33:05.000Z</time>
      </trkpt>
      <trkpt lat="48.70687" lon="1.75525">
        <ele>167</ele>
        <time>2014-04-20T12:33:10.000Z</time>
      </trkpt>
      <trkpt lat="48.70689" lon="1.75519">
        <ele>167.80000305176</ele>
        <time>2014-04-20T12:33:15.000Z</time>
      </trkpt>
      <trkpt lat="48.70692" lon="1.75512">
        <ele>169.39999389648</ele>
        <time>2014-04-20T12:33:20.000Z</time>
      </trkpt>
      <trkpt lat="48.70693" lon="1.75511">
        <ele>169.39999389648</ele>
        <time>2014-04-20T12:33:21.000Z</time>
      </trkpt>
      <trkpt lat="48.70694" lon="1.75506">
        <ele>169.39999389648</ele>
        <time>2014-04-20T12:33:24.000Z</time>
      </trkpt>
      <trkpt lat="48.70695" lon="1.75501">
        <ele>170.19999694824</ele>
        <time>2014-04-20T12:33:27.000Z</time>
      </trkpt>
      <trkpt lat="48.70697" lon="1.75492">
        <ele>170.19999694824</ele>
        <time>2014-04-20T12:33:33.000Z</time>
      </trkpt>
      <trkpt lat="48.70698" lon="1.75491">
        <ele>170.19999694824</ele>
        <time>2014-04-20T12:33:36.000Z</time>
      </trkpt>
    </trkseg>
  </trk>
</gpx>